U27416 / G-UZHE 7700 Squawk Report (7th of November, 2019)

Aircraft A20N Reg No. G-UZHE Age 1 years old
Model A320 Jet engines 2 First flight 15-03-18
Registered 23-03-18 Rollout N/A Delivered 23-03-18
Construction No. 8110 Line No. N/A Series 251N(SL)
ADSHEX 4074B5 Airline name easyJet Owner N/A
Airfield based Luton~Beds~G First tracked 2018-04-04 15:37:00

Flight history for G-UZHE

Route Flight No Date Playback
Arrecife Airport (ACE) - Southend (SEN) U27452 2019-11-22 22:19:00
Southend (SEN) - Arrecife Airport (ACE) U27451 2019-11-22 18:33:00
Alicante (ALC) - Southend (SEN) U27416 2019-11-22 13:51:00
Southend (SEN) - Alicante (ALC) U27415 2019-11-22 09:22:00
Belfast International (BFS) - Arrecife Airport (ACE) U26731 2019-11-22 07:08:00
Schiphol (AMS) - Southend (SEN) U27406 2019-11-21 20:55:00
Southend (SEN) - Schiphol (AMS) U27405 2019-11-21 19:33:00
Luqa (MLA) - Southend (SEN) U27432 2019-11-21 18:34:00
Southend (SEN) - Luqa (MLA) U27431 2019-11-21 12:16:00
Tenerife Sur (TFS) - Southend (SEN) U27442 2019-11-19 16:47:00
Southend (SEN) - Tenerife Sur (TFS) U27441 2019-11-19 11:28:00
Arrecife Airport (ACE) - Southend (SEN) U27452 2019-11-19 07:27:00
Southend (SEN) - Arrecife Airport (ACE) U27451 2019-11-18 17:18:00
Alicante (ALC) - Southend (SEN) U27416 2019-11-18 13:50:00
Southend (SEN) - Alicante (ALC) U27415 2019-11-18 10:01:00
Schiphol (AMS) - Southend (SEN) U27402 2019-11-17 16:32:00
Southend (SEN) - Schiphol (AMS) U27401 2019-11-17 15:36:00
Alicante (ALC) - Southend (SEN) U27416 2019-11-17 14:09:00
Luton (LTN) - Alicante (ALC) U22221 2019-11-17 09:44:00
Keflavik International Airport (KEF) - Luton (LTN) U22298 2019-11-17 07:36:00
Time Lat Lon Altitude Heading Speed Vertical Rate
2019-11-07 14:00:29 GMT 51.569660 0.701828 0 115 10 0
2019-11-07 13:59:00 GMT 51.569756 0.691814 0 53 31 0
2019-11-07 13:58:27 GMT 51.567249 0.686256 0 53 29 0
2019-11-07 13:58:12 GMT 51.566093 0.683695 0 53 22 0
2019-11-07 13:56:04 GMT 51.575729 0.705129 675 235 121 -704
2019-11-07 13:55:58 GMT 51.577835 0.709806 775 235 121 -704
2019-11-07 13:55:54 GMT 51.578995 0.712433 800 235 121 -576
2019-11-07 13:55:51 GMT 51.579647 0.713959 825 234 120 -576
2019-11-07 13:55:44 GMT 51.582321 0.719827 925 235 116 -704
2019-11-07 13:55:41 GMT 51.582962 0.721238 1,200 234 113 -640
2019-11-07 13:55:37 GMT 51.584488 0.724640 975 235 116 -640
2019-11-07 13:55:31 GMT 51.586071 0.728226 1,025 235 116 -640
2019-11-07 13:55:27 GMT 51.587654 0.731659 1,150 235 114 -576
2019-11-07 13:55:24 GMT 51.588409 0.733337 1,150 235 114 -576
2019-11-07 13:55:21 GMT 51.589188 0.735119 1,100 235 115 -576
2019-11-07 13:55:15 GMT 51.591614 0.740612 1,200 235 114 -640
2019-11-07 13:55:12 GMT 51.592171 0.741882 1,250 234 113 -640
2019-11-07 13:55:06 GMT 51.594219 0.746384 1,300 235 114 -576
2019-11-07 13:55:03 GMT 51.595047 0.748184 1,325 234 113 -704
2019-11-07 13:54:59 GMT 51.596054 0.750337 1,350 234 113 -640
2019-11-07 13:54:56 GMT 51.597198 0.752860 1,400 234 113 -640
2019-11-07 13:54:53 GMT 51.597942 0.754547 1,450 234 113 -704
2019-11-07 13:54:49 GMT 51.599243 0.757523 1,475 234 113 -640
2019-11-07 13:54:46 GMT 51.600220 0.759616 1,525 235 113 -576
2019-11-07 13:54:42 GMT 51.601433 0.762253 1,550 235 113 -576
2019-11-07 13:54:39 GMT 51.602371 0.764366 1,625 235 115 -640
2019-11-07 13:54:35 GMT 51.603577 0.767136 1,650 235 115 -640
2019-11-07 13:54:32 GMT 51.604507 0.769196 1,700 235 115 -576
2019-11-07 13:54:29 GMT 51.605438 0.771255 1,675 235 116 -640
2019-11-07 13:54:24 GMT 51.607132 0.775130 1,725 235 116 -576
2019-11-07 13:54:21 GMT 51.607773 0.776540 1,725 235 116 -576
2019-11-07 13:54:18 GMT 51.608826 0.778916 1,775 235 114 -576
2019-11-07 13:54:15 GMT 51.610062 0.781588 1,800 235 114 -576
2019-11-07 13:54:12 GMT 51.610882 0.783463 1,850 235 116 -576
2019-11-07 13:54:08 GMT 51.611675 0.785294 1,875 235 119 -512
2019-11-07 13:54:05 GMT 51.612839 0.787888 1,900 235 116 -576
2019-11-07 13:54:01 GMT 51.614182 0.790867 1,925 235 119 -512
2019-11-07 13:53:58 GMT 51.614979 0.792694 1,975 235 120 -640
2019-11-07 13:53:55 GMT 51.615955 0.794907 1,975 234 122 -832
2019-11-07 13:53:52 GMT 51.616982 0.797119 2,100 235 144 -768
2019-11-07 13:53:49 GMT 51.618099 0.799561 2,125 234 128 -640
2019-11-07 13:53:46 GMT 51.619171 0.801928 2,125 235 146 -768
2019-11-07 13:53:43 GMT 51.620453 0.804749 2,175 235 139 -832
2019-11-07 13:53:38 GMT 51.621918 0.808015 2,225 235 139 -768
2019-11-07 13:53:35 GMT 51.623127 0.810699 2,275 235 140 -832
2019-11-07 13:53:31 GMT 51.624985 0.814844 2,350 235 146 -768
2019-11-07 13:53:28 GMT 51.625763 0.816626 2,375 235 147 -896
2019-11-07 13:53:25 GMT 51.627178 0.819778 2,425 235 149 -896
2019-11-07 13:53:22 GMT 51.628235 0.822193 2,450 235 149 -896
2019-11-07 13:53:18 GMT 51.631088 0.828629 2,525 235 149 -832
2019-11-07 13:53:15 GMT 51.632172 0.831101 2,575 236 149 -832
2019-11-07 13:53:12 GMT 51.632172 0.831101 2,575 236 148 -768
2019-11-07 13:53:09 GMT 51.634811 0.837250 2,650 236 149 -640
2019-11-07 13:53:06 GMT 51.634811 0.837250 2,700 236 149 -768
2019-11-07 13:53:03 GMT 51.635513 0.838969 2,700 236 149 -768
2019-11-07 13:53:00 GMT 51.636906 0.842209 2,750 236 149 -768
2019-11-07 13:52:57 GMT 51.638115 0.845108 2,775 237 150 -704
2019-11-07 13:52:53 GMT 51.639465 0.848389 2,800 237 150 -768
2019-11-07 13:52:50 GMT 51.641094 0.852432 2,875 240 151 -832
2019-11-07 13:52:47 GMT 51.642029 0.854950 2,925 241 150 -1088
2019-11-07 13:52:42 GMT 51.643795 0.859985 3,000 244 150 -832
2019-11-07 13:52:39 GMT 51.644760 0.863169 3,050 247 150 -576
2019-11-07 13:52:36 GMT 51.645355 0.865173 3,075 250 150 -448
2019-11-07 13:52:33 GMT 51.646217 0.868683 3,075 254 151 -448
2019-11-07 13:52:29 GMT 51.647007 0.872574 3,125 257 153 -512
2019-11-07 13:52:26 GMT 51.647518 0.875778 3,175 263 154 -448
2019-11-07 13:52:23 GMT 51.647938 0.880280 3,175 265 155 -576
2019-11-07 13:52:20 GMT 51.648216 0.886688 3,225 268 159 -640
2019-11-07 13:52:16 GMT 51.648357 0.890808 3,475 267 161 -832
2019-11-07 13:52:13 GMT 51.648357 0.890808 3,250 267 160 -640
2019-11-07 13:52:08 GMT 51.648605 0.896722 3,350 267 162 -896
2019-11-07 13:52:05 GMT 51.648731 0.900269 3,375 267 162 -832
2019-11-07 13:52:02 GMT 51.648823 0.904007 3,450 266 163 -960
2019-11-07 13:51:59 GMT 51.648972 0.907782 3,475 267 162 -1088
2019-11-07 13:51:56 GMT 51.649151 0.911407 3,525 266 162 -1024
2019-11-07 13:51:53 GMT 51.649292 0.914983 3,625 266 163 -960
2019-11-07 13:51:50 GMT 51.649475 0.919214 3,625 266 164 -832
2019-11-07 13:51:47 GMT 51.649612 0.922258 3,675 266 165 -832
2019-11-07 13:51:44 GMT 51.649979 0.929978 3,750 266 168 -704
2019-11-07 13:51:38 GMT 51.650406 0.938950 3,775 266 170 -512
2019-11-07 13:51:34 GMT 51.650406 0.938950 3,825 266 171 -896
2019-11-07 13:51:31 GMT 51.650593 0.942764 3,875 267 171 -640
2019-11-07 13:51:28 GMT 51.650684 0.945587 3,900 267 172 -512
2019-11-07 13:51:25 GMT 51.650871 0.950775 3,925 267 172 -704
2019-11-07 13:51:22 GMT 51.650940 0.952544 3,950 267 172 -704
2019-11-07 13:51:19 GMT 51.651306 0.960858 4,000 267 171 -640
2019-11-07 13:51:16 GMT 51.651443 0.965386 4,025 267 170 -512
2019-11-07 13:51:13 GMT 51.651443 0.965386 4,050 266 171 -576
2019-11-07 13:51:09 GMT 51.651615 0.969543 4,100 267 170 -576
2019-11-07 13:51:06 GMT 51.651764 0.973255 4,125 267 171 -576
2019-11-07 13:51:03 GMT 51.651897 0.977325 4,625 266 174 -704
2019-11-07 13:51:00 GMT 51.652130 0.982831 4,225 267 174 -768
2019-11-07 13:50:56 GMT 51.652313 0.986320 4,175 266 172 -448
2019-11-07 13:50:53 GMT 51.652500 0.990295 4,200 266 173 -576
2019-11-07 13:50:50 GMT 51.652687 0.994034 4,225 266 173 -576
2019-11-07 13:50:47 GMT 51.652863 0.997529 4,275 266 174 -832
2019-11-07 13:50:44 GMT 51.653061 1.001511 4,300 266 174 -768
2019-11-07 13:50:41 GMT 51.653412 1.009703 4,375 267 175 -768
2019-11-07 13:50:38 GMT 51.653572 1.013718 4,425 267 176 -768
2019-11-07 13:50:35 GMT 51.653572 1.013718 4,425 267 176 -768
2019-11-07 13:50:32 GMT 51.653778 1.018685 4,450 267 176 -576
2019-11-07 13:50:29 GMT 51.653942 1.022415 4,500 267 176 -704
2019-11-07 13:50:25 GMT 51.654053 1.025811 4,550 267 177 -768
2019-11-07 13:50:22 GMT 51.654236 1.030339 4,625 267 176 -640
2019-11-07 13:50:19 GMT 51.654457 1.035690 4,650 267 176 -640
2019-11-07 13:50:16 GMT 51.654549 1.038818 4,650 267 175 -640
2019-11-07 13:50:12 GMT 51.654739 1.043478 4,725 267 174 -640
2019-11-07 13:50:09 GMT 51.654922 1.047440 4,725 267 173 -704
2019-11-07 13:50:05 GMT 51.655106 1.052015 4,775 267 173 -704
2019-11-07 13:50:02 GMT 51.655293 1.056900 4,850 267 173 -768
2019-11-07 13:49:59 GMT 51.655434 1.059494 4,850 267 173 -768
2019-11-07 13:49:56 GMT 51.655563 1.063298 5,150 268 174 -640
2019-11-07 13:49:53 GMT 51.655762 1.067963 4,950 267 174 -768
2019-11-07 13:49:48 GMT 51.655991 1.074677 4,975 268 174 -832
2019-11-07 13:49:45 GMT 51.656086 1.078262 5,025 268 174 -832
2019-11-07 13:49:42 GMT 51.656204 1.081634 5,075 268 174 -576
2019-11-07 13:49:39 GMT 51.656433 1.089577 5,100 268 174 -512
2019-11-07 13:49:33 GMT 51.656597 1.094971 5,150 268 174 -512
2019-11-07 13:49:29 GMT 51.656708 1.099078 5,175 268 174 -448
2019-11-07 13:49:26 GMT 51.656799 1.103087 5,200 268 174 -448
2019-11-07 13:49:22 GMT 51.656937 1.108060 5,225 268 174 -384
2019-11-07 13:49:19 GMT 51.657063 1.113586 5,275 268 174 -576
2019-11-07 13:49:15 GMT 51.657295 1.121216 5,350 268 174 -640
2019-11-07 13:49:09 GMT 51.657482 1.128464 5,400 268 174 -704
2019-11-07 13:49:06 GMT 51.657623 1.132928 5,400 268 174 -704
2019-11-07 13:49:03 GMT 51.657623 1.132928 5,475 268 175 -704
2019-11-07 13:49:00 GMT 51.657761 1.137233 5,475 268 175 -704
2019-11-07 13:48:57 GMT 51.657856 1.140518 5,525 268 175 -704
2019-11-07 13:48:53 GMT 51.657993 1.145859 5,575 268 176 -704
2019-11-07 13:48:50 GMT 51.658127 1.149036 5,625 268 176 -704
2019-11-07 13:48:46 GMT 51.658321 1.155853 5,650 267 176 -704
2019-11-07 13:48:39 GMT 51.658600 1.164017 5,725 267 176 -768
2019-11-07 13:48:36 GMT 51.658768 1.168040 5,750 267 176 -640
2019-11-07 13:48:33 GMT 51.658924 1.172256 5,800 267 175 -640
2019-11-07 13:48:28 GMT 51.659180 1.178209 5,825 267 175 -640
2019-11-07 13:48:25 GMT 51.659363 1.182366 5,875 266 175 -576
2019-11-07 13:48:22 GMT 51.659546 1.185855 5,875 266 175 -576
2019-11-07 13:48:19 GMT 51.659729 1.189715 5,975 266 177 -896
2019-11-07 13:48:16 GMT 51.659950 1.194763 6,025 266 178 -960
2019-11-07 13:48:13 GMT 51.660183 1.199036 6,025 266 179 -832
2019-11-07 13:48:08 GMT 51.660507 1.206195 6,100 266 183 -640
2019-11-07 13:48:05 GMT 51.660648 1.209641 6,125 267 186 -576
2019-11-07 13:48:02 GMT 51.660782 1.212430 6,150 267 186 -576
2019-11-07 13:47:59 GMT 51.660919 1.217107 6,175 268 188 -576
2019-11-07 13:47:55 GMT 51.661057 1.223417 6,225 271 191 -704
2019-11-07 13:47:52 GMT 51.661057 1.226831 6,450 294 200 -768
2019-11-07 13:47:48 GMT 51.660324 1.236407 6,400 292 198 -832
2019-11-07 13:47:42 GMT 51.658493 1.244350 6,425 335 219 0
2019-11-07 13:47:36 GMT 51.656799 1.248804 6,475 309 205 -832
2019-11-07 13:47:32 GMT 51.654282 1.253629 6,525 320 210 -640
2019-11-07 13:47:29 GMT 51.652596 1.256332 6,575 335 219 0
2019-11-07 13:47:26 GMT 51.647007 1.262283 6,600 335 219 -128
2019-11-07 13:47:23 GMT 51.644119 1.264467 6,575 335 219 0
2019-11-07 13:47:20 GMT 51.644119 1.264467 6,575 337 221 128
2019-11-07 13:47:16 GMT 51.640816 1.266785 6,575 337 229 -64
2019-11-07 13:47:13 GMT 51.637436 1.269144 6,575 337 223 0
2019-11-07 13:47:10 GMT 51.630707 1.273820 6,575 337 229 -64
2019-11-07 13:47:05 GMT 51.630707 1.273820 6,575 337 231 -128
2019-11-07 13:47:02 GMT 51.627274 1.276196 6,600 339 234 64
2019-11-07 13:46:59 GMT 51.624069 1.278348 6,600 339 234 64
2019-11-07 13:46:56 GMT 51.621048 1.280353 6,600 342 236 64
2019-11-07 13:46:50 GMT 51.615051 1.283619 6,575 348 238 64
2019-11-07 13:46:46 GMT 51.610611 1.285103 6,575 0 246 -64
2019-11-07 13:46:43 GMT 51.607346 1.285553 6,575 0 246 -64
2019-11-07 13:46:40 GMT 51.603157 1.285400 6,575 8 250 64
2019-11-07 13:46:37 GMT 51.600266 1.284881 6,575 11 256 0
2019-11-07 13:46:33 GMT 51.595615 1.283493 6,575 11 254 0
2019-11-07 13:46:30 GMT 51.589561 1.281509 6,575 11 261 0
2019-11-07 13:46:24 GMT 51.585709 1.280278 6,575 11 266 0
2019-11-07 13:46:21 GMT 51.581928 1.279068 6,575 11 267 0
2019-11-07 13:46:18 GMT 51.578247 1.277903 6,575 11 272 0
2019-11-07 13:46:15 GMT 51.572990 1.276245 6,575 11 276 -128
2019-11-07 13:46:12 GMT 51.569916 1.275305 6,600 11 282 -320
2019-11-07 13:46:09 GMT 51.565475 1.273894 6,600 11 280 -192
2019-11-07 13:46:06 GMT 51.563026 1.273117 6,625 10 281 -256
2019-11-07 13:46:02 GMT 51.557053 1.271222 6,625 11 282 -256
2019-11-07 13:45:59 GMT 51.553345 1.270034 6,625 11 281 -256
2019-11-07 13:45:56 GMT 51.548828 1.268616 6,650 11 281 -256
2019-11-07 13:45:53 GMT 51.546268 1.267853 6,650 10 281 -256
2019-11-07 13:45:50 GMT 51.542496 1.266694 6,675 10 280 -256
2019-11-07 13:45:47 GMT 51.538055 1.265358 6,700 10 280 -320
2019-11-07 13:45:43 GMT 51.533142 1.263809 6,700 10 280 -384
2019-11-07 13:45:40 GMT 51.530628 1.263046 6,750 10 280 -448
2019-11-07 13:45:37 GMT 51.525925 1.261597 6,750 10 280 -448
2019-11-07 13:45:34 GMT 51.521969 1.260376 6,775 10 280 -320
2019-11-07 13:45:31 GMT 51.514336 1.258011 6,800 10 279 -320
2019-11-07 13:45:28 GMT 51.510517 1.256790 6,825 10 279 -320
2019-11-07 13:45:25 GMT 51.510517 1.256790 6,825 10 279 -320
2019-11-07 13:45:22 GMT 51.501755 1.254075 6,850 10 278 -320
2019-11-07 13:45:18 GMT 51.501755 1.254075 6,850 10 278 -320
2019-11-07 13:45:15 GMT 51.497589 1.252813 6,925 10 276 -192
2019-11-07 13:45:12 GMT 51.492828 1.251297 6,875 10 276 -192
2019-11-07 13:45:08 GMT 51.489761 1.250363 6,925 10 276 -192
2019-11-07 13:45:05 GMT 51.484680 1.248856 6,925 10 276 -256
2019-11-07 13:45:02 GMT 51.481979 1.247987 6,925 10 276 -256
2019-11-07 13:44:59 GMT 51.476944 1.246429 6,925 10 277 -128
2019-11-07 13:44:56 GMT 51.473228 1.245346 6,950 10 277 -128
2019-11-07 13:44:50 GMT 51.462986 1.242218 6,975 10 281 -192
2019-11-07 13:44:47 GMT 51.457493 1.240540 7,075 10 283 -128
2019-11-07 13:44:43 GMT 51.457493 1.240540 6,975 10 289 -256
2019-11-07 13:44:40 GMT 51.454235 1.239548 6,975 10 284 -64
2019-11-07 13:44:35 GMT 51.447624 1.237564 6,975 10 290 -256
2019-11-07 13:44:32 GMT 51.443893 1.236407 7,000 10 292 -256
2019-11-07 13:44:29 GMT 51.440186 1.235294 7,025 10 294 -320
2019-11-07 13:44:26 GMT 51.436066 1.234106 7,025 10 297 -384
2019-11-07 13:44:20 GMT 51.423138 1.230316 7,125 10 305 -448
2019-11-07 13:44:17 GMT 51.423138 1.230316 7,100 10 306 -448
2019-11-07 13:44:12 GMT 51.415329 1.228093 7,150 10 312 -512
2019-11-07 13:44:09 GMT 51.409927 1.226534 7,175 9 317 -576
2019-11-07 13:44:05 GMT 51.405487 1.225273 7,175 9 316 -576
2019-11-07 13:43:59 GMT 51.397675 1.223068 7,250 9 321 -768
2019-11-07 13:43:56 GMT 51.385025 1.219557 7,350 10 326 -448
2019-11-07 13:43:51 GMT 51.385025 1.219557 7,350 10 326 -512
2019-11-07 13:43:45 GMT 51.375961 1.217033 7,400 10 326 -448
2019-11-07 13:43:41 GMT 51.371605 1.215744 7,400 10 326 -320
2019-11-07 13:43:38 GMT 51.362854 1.213226 7,550 10 325 -320
2019-11-07 13:43:35 GMT 51.354630 1.210872 7,450 10 326 -448
2019-11-07 13:43:30 GMT 51.354630 1.210872 7,500 10 326 -512
2019-11-07 13:43:27 GMT 51.349957 1.209488 7,500 10 327 -448
2019-11-07 13:43:24 GMT 51.343781 1.207680 7,550 10 328 -512
2019-11-07 13:43:19 GMT 51.333431 1.204681 7,600 10 330 -512
2019-11-07 13:43:13 GMT 51.328915 1.203461 7,625 9 336 -448
2019-11-07 13:43:08 GMT 51.321468 1.201324 7,675 9 335 -512
2019-11-07 13:42:59 GMT 51.307549 1.197586 7,725 9 337 -384
2019-11-07 13:42:56 GMT 51.302994 1.196322 7,750 9 338 -384
2019-11-07 13:42:48 GMT 51.290604 1.192932 7,800 9 338 -448
2019-11-07 13:42:45 GMT 51.285233 1.191497 7,825 9 339 -448
2019-11-07 13:42:41 GMT 51.280968 1.190338 7,900 9 346 -448
2019-11-07 13:42:36 GMT 51.271225 1.187711 7,975 9 352 -128
2019-11-07 13:42:33 GMT 51.267372 1.186676 7,925 9 346 -448
2019-11-07 13:42:27 GMT 51.253036 1.182861 8,000 9 351 -256
2019-11-07 13:42:21 GMT 51.248520 1.181717 8,000 9 352 -256
2019-11-07 13:42:17 GMT 51.241196 1.179843 8,000 9 352 0
2019-11-07 13:42:13 GMT 51.235245 1.178358 8,000 8 352 0
2019-11-07 13:42:10 GMT 51.230179 1.177063 8,000 8 353 0
2019-11-07 13:42:07 GMT 51.224945 1.175760 8,000 8 353 0
2019-11-07 13:42:02 GMT 51.218491 1.174127 8,000 9 354 0
2019-11-07 13:41:58 GMT 51.211464 1.172333 8,000 9 355 0
2019-11-07 13:41:52 GMT 51.195328 1.168262 8,000 9 355 0
2019-11-07 13:41:48 GMT 51.195328 1.168262 8,000 9 355 0
2019-11-07 13:41:45 GMT 51.190376 1.166992 8,000 9 355 64
2019-11-07 13:41:42 GMT 51.185677 1.165848 8,000 8 355 0
2019-11-07 13:41:38 GMT 51.179016 1.164169 8,000 9 354 0
2019-11-07 13:41:35 GMT 51.174088 1.162918 8,000 8 355 0
2019-11-07 13:41:32 GMT 51.169235 1.161730 8,000 8 355 -64
2019-11-07 13:41:28 GMT 51.161327 1.159744 8,000 9 356 0
2019-11-07 13:41:25 GMT 51.156555 1.158538 8,000 9 355 0
2019-11-07 13:41:21 GMT 51.149830 1.156845 8,000 9 356 -64
2019-11-07 13:41:18 GMT 51.146431 1.156006 8,000 9 356 0
2019-11-07 13:41:15 GMT 51.141129 1.154604 8,000 9 356 -64
2019-11-07 13:41:08 GMT 51.129272 1.151560 8,000 9 357 0
2019-11-07 13:41:05 GMT 51.123528 1.150055 8,000 15 362 64
2019-11-07 13:41:00 GMT 51.115707 1.147690 8,000 18 365 0
2019-11-07 13:40:53 GMT 51.105885 1.143799 8,000 20 366 0
2019-11-07 13:40:49 GMT 51.099518 1.140203 8,000 32 365 0
2019-11-07 13:40:46 GMT 51.094757 1.136936 8,000 31 366 0
2019-11-07 13:40:43 GMT 51.082561 1.125870 8,000 32 365 0
2019-11-07 13:40:38 GMT 51.082561 1.125870 8,000 32 365 0
2019-11-07 13:40:35 GMT 51.078049 1.121348 8,000 32 365 0
2019-11-07 13:40:28 GMT 51.064041 1.107244 8,000 32 365 0
2019-11-07 13:40:25 GMT 51.064041 1.107244 8,000 32 365 0
2019-11-07 13:40:21 GMT 51.059425 1.102600 8,000 32 364 0
2019-11-07 13:40:18 GMT 51.053925 1.097074 8,000 32 364 0
2019-11-07 13:40:14 GMT 51.047134 1.090240 8,000 32 365 0
2019-11-07 13:40:07 GMT 51.038429 1.081543 8,000 32 364 0
2019-11-07 13:40:04 GMT 51.033966 1.077031 8,000 32 364 0
2019-11-07 13:40:01 GMT 51.030945 1.074062 8,000 32 364 -64
2019-11-07 13:39:57 GMT 51.023438 1.066490 8,000 32 364 0
2019-11-07 13:39:54 GMT 51.020645 1.063690 8,000 32 364 64
2019-11-07 13:39:51 GMT 51.016022 1.059067 8,000 32 364 64
2019-11-07 13:39:48 GMT 51.010826 1.053925 8,000 32 361 0
2019-11-07 13:39:44 GMT 51.004532 1.047561 8,000 32 363 0
2019-11-07 13:39:41 GMT 51.001831 1.044889 8,000 32 363 0
2019-11-07 13:39:38 GMT 50.998169 1.041177 8,000 32 364 0
2019-11-07 13:39:35 GMT 50.992767 1.035833 8,000 32 364 0
2019-11-07 13:39:32 GMT 50.988991 1.032028 8,000 32 364 0
2019-11-07 13:39:29 GMT 50.983932 1.026999 8,000 32 364 -64
2019-11-07 13:39:26 GMT 50.978989 1.022025 8,000 32 363 64
2019-11-07 13:39:20 GMT 50.971954 1.015015 8,000 32 363 64
2019-11-07 13:39:17 GMT 50.968510 1.011581 8,000 32 360 0
2019-11-07 13:39:14 GMT 50.961990 1.005020 8,000 32 362 0
2019-11-07 13:39:11 GMT 50.959152 1.002197 8,000 32 363 0
2019-11-07 13:39:07 GMT 50.954269 0.997306 8,000 32 362 0
2019-11-07 13:39:04 GMT 50.948399 0.991440 8,000 32 361 -64
2019-11-07 13:39:01 GMT 50.944794 0.987879 8,000 32 361 -64
2019-11-07 13:38:58 GMT 50.938293 0.981346 8,000 32 361 -64
2019-11-07 13:38:54 GMT 50.935455 0.978526 8,000 32 360 0
2019-11-07 13:38:51 GMT 50.930149 0.973206 8,000 32 360 0
2019-11-07 13:38:47 GMT 50.925705 0.968801 8,000 32 360 0
2019-11-07 13:38:43 GMT 50.918606 0.961685 8,000 32 360 64
2019-11-07 13:38:40 GMT 50.915131 0.958186 8,000 32 360 0
2019-11-07 13:38:37 GMT 50.911331 0.954400 8,000 32 360 64
2019-11-07 13:38:34 GMT 50.906982 0.950020 8,000 32 360 64
2019-11-07 13:38:31 GMT 50.898869 0.941925 8,000 32 360 -64
2019-11-07 13:38:25 GMT 50.893707 0.936807 8,000 32 361 -64
2019-11-07 13:38:20 GMT 50.886200 0.929384 8,000 32 361 -64
2019-11-07 13:38:17 GMT 50.883320 0.926437 8,000 32 361 0
2019-11-07 13:38:14 GMT 50.878941 0.922089 8,000 32 361 64
2019-11-07 13:38:11 GMT 50.874660 0.917892 8,000 32 363 -256
2019-11-07 13:38:07 GMT 50.868607 0.911865 8,000 32 363 -256
2019-11-07 13:38:04 GMT 50.865280 0.908525 8,025 32 362 -128
2019-11-07 13:38:01 GMT 50.860928 0.904236 8,025 32 364 -384
2019-11-07 13:37:57 GMT 50.855072 0.898429 8,025 32 363 -192
2019-11-07 13:37:53 GMT 50.849987 0.893402 8,050 32 366 -448
2019-11-07 13:37:49 GMT 50.842392 0.885884 8,100 32 366 -512
2019-11-07 13:37:46 GMT 50.838821 0.882321 8,100 32 364 -576
2019-11-07 13:37:43 GMT 50.833374 0.876902 8,125 32 366 -448
2019-11-07 13:37:39 GMT 50.829666 0.873265 8,150 32 366 -448
2019-11-07 13:37:36 GMT 50.825500 0.869108 8,175 32 367 -448
2019-11-07 13:37:32 GMT 50.818314 0.861981 8,225 32 368 -448
2019-11-07 13:37:26 GMT 50.810532 0.854187 8,250 32 368 -384
2019-11-07 13:37:23 GMT 50.805248 0.848999 8,300 32 368 -448
2019-11-07 13:37:19 GMT 50.800968 0.844650 8,300 32 368 -448
2019-11-07 13:37:16 GMT 50.788120 0.831833 8,350 32 369 -512
2019-11-07 13:37:11 GMT 50.788120 0.831833 8,425 32 370 -640
2019-11-07 13:37:06 GMT 50.781647 0.825348 8,425 32 370 -640
2019-11-07 13:37:02 GMT 50.776474 0.820189 8,450 32 371 -640
2019-11-07 13:36:59 GMT 50.772125 0.815883 8,500 32 369 -640
2019-11-07 13:36:56 GMT 50.766983 0.810776 8,525 32 369 -640
2019-11-07 13:36:53 GMT 50.757442 0.801315 8,675 32 367 -640
2019-11-07 13:36:49 GMT 50.750931 0.794876 8,650 32 363 -640
2019-11-07 13:36:45 GMT 50.750931 0.794876 8,650 31 364 -640
2019-11-07 13:36:42 GMT 50.746948 0.790941 8,675 31 361 -640
2019-11-07 13:36:36 GMT 50.737518 0.781631 8,775 32 358 -704
2019-11-07 13:36:33 GMT 50.733902 0.778099 8,850 32 316 -3200
2019-11-07 13:36:29 GMT 50.728111 0.772400 8,825 31 352 -704
2019-11-07 13:36:25 GMT 50.722572 0.766983 8,875 31 347 -704
2019-11-07 13:36:22 GMT 50.714565 0.759125 9,075 31 317 -1408
2019-11-07 13:36:18 GMT 50.714565 0.759125 9,625 32 315 -1856
2019-11-07 13:36:15 GMT 50.708405 0.753157 9,050 31 331 -1408
2019-11-07 13:36:12 GMT 50.705429 0.750262 9,100 31 327 -1728
2019-11-07 13:36:07 GMT 50.694454 0.739594 9,775 31 322 -2432
2019-11-07 13:36:04 GMT 50.694454 0.739594 9,400 32 320 -2624
2019-11-07 13:36:01 GMT 50.690231 0.735416 9,475 31 319 -2816
2019-11-07 13:35:57 GMT 50.682907 0.728215 9,775 32 316 -3136
2019-11-07 13:35:54 GMT 50.682907 0.728215 10,025 32 315 -2880
2019-11-07 13:35:45 GMT 50.672150 0.717600 10,225 31 317 -1536
2019-11-07 13:35:42 GMT 50.667343 0.712883 10,325 32 315 -1920
2019-11-07 13:35:39 GMT 50.664276 0.709775 10,550 32 316 -1792
2019-11-07 13:35:36 GMT 50.660431 0.706016 11,625 32 325 -1600
2019-11-07 13:35:33 GMT 50.650974 0.696667 10,650 32 316 -1664
2019-11-07 13:35:29 GMT 50.650974 0.696667 10,700 32 318 -1344
2019-11-07 13:35:26 GMT 50.647934 0.693657 10,750 32 318 -1344
2019-11-07 13:35:23 GMT 50.644737 0.690580 10,875 32 319 -1088
2019-11-07 13:35:19 GMT 50.638500 0.684419 10,900 32 322 -1344
2019-11-07 13:35:16 GMT 50.634659 0.680646 10,975 32 322 -1472
2019-11-07 13:35:13 GMT 50.632736 0.678767 11,250 32 323 -1536
2019-11-07 13:35:09 GMT 50.627140 0.673210 11,200 32 323 -1536
2019-11-07 13:35:05 GMT 50.621384 0.667492 11,250 32 324 -1664
2019-11-07 13:35:02 GMT 50.618362 0.664528 11,300 32 324 -1792
2019-11-07 13:34:59 GMT 50.613281 0.659469 11,425 32 324 -1792
2019-11-07 13:34:54 GMT 50.604263 0.650579 11,625 32 324 -1664
2019-11-07 13:34:51 GMT 50.604263 0.650579 11,800 32 324 -2368
2019-11-07 13:34:45 GMT 50.597122 0.643568 12,000 32 325 -2112
2019-11-07 13:34:41 GMT 50.588039 0.634535 12,350 32 324 -1984
2019-11-07 13:34:34 GMT 50.578674 0.625353 12,225 32 325 -1536
2019-11-07 13:34:31 GMT 50.578674 0.625353 12,450 32 332 -1920
2019-11-07 13:34:28 GMT 50.572906 0.619643 12,375 32 329 -1152
2019-11-07 13:34:24 GMT 50.569061 0.615885 12,475 32 332 -1536
2019-11-07 13:34:21 GMT 50.565536 0.612416 12,600 32 332 -1536
2019-11-07 13:34:18 GMT 50.560291 0.607217 12,600 32 331 -1600
2019-11-07 13:34:15 GMT 50.557251 0.604248 12,675 32 332 -1792
2019-11-07 13:34:11 GMT 50.549149 0.596297 12,900 31 332 -2240
2019-11-07 13:34:05 GMT 50.545303 0.592519 13,075 32 331 -2048
2019-11-07 13:34:02 GMT 50.541733 0.588997 13,100 31 331 -2112
2019-11-07 13:33:58 GMT 50.535805 0.583166 13,375 31 333 -1280
2019-11-07 13:33:53 GMT 50.529236 0.576782 13,550 31 332 -1536
2019-11-07 13:33:50 GMT 50.526123 0.573747 13,650 31 333 -1280
2019-11-07 13:33:47 GMT 50.519791 0.567577 13,575 31 334 -1408
2019-11-07 13:33:42 GMT 50.515137 0.562977 13,675 31 335 -1344
2019-11-07 13:33:39 GMT 50.511703 0.559652 13,800 31 335 -1344
2019-11-07 13:33:36 GMT 50.507492 0.555532 14,000 31 335 -1344
2019-11-07 13:33:32 GMT 50.501915 0.550133 13,900 31 336 -960
2019-11-07 13:33:29 GMT 50.498016 0.546281 13,975 31 337 -576
2019-11-07 13:33:26 GMT 50.489502 0.538041 13,975 31 340 -256
2019-11-07 13:33:23 GMT 50.485577 0.534247 13,975 31 340 -192
2019-11-07 13:33:20 GMT 50.481667 0.530461 14,000 31 341 -128
2019-11-07 13:33:17 GMT 50.481667 0.530461 14,000 31 341 -192
2019-11-07 13:33:13 GMT 50.474823 0.523855 14,000 31 341 0
2019-11-07 13:33:07 GMT 50.468071 0.517471 14,000 31 341 -64
2019-11-07 13:33:04 GMT 50.463959 0.513539 14,000 31 342 -64
2019-11-07 13:33:01 GMT 50.459972 0.509677 14,000 31 342 0
2019-11-07 13:32:57 GMT 50.454712 0.504703 14,000 34 342 192
2019-11-07 13:32:53 GMT 50.449219 0.499517 14,000 34 342 192
2019-11-07 13:32:50 GMT 50.443817 0.494385 14,000 31 341 0
2019-11-07 13:32:47 GMT 50.440979 0.491710 14,000 32 340 64
2019-11-07 13:32:43 GMT 50.435673 0.486665 14,000 31 340 0
2019-11-07 13:32:40 GMT 50.432182 0.483324 14,000 32 340 64
2019-11-07 13:32:36 GMT 50.426174 0.477386 14,000 69 340 0
2019-11-07 13:32:32 GMT 50.420929 0.471834 14,000 38 344 64
2019-11-07 13:32:29 GMT 50.417797 0.467884 14,000 46 346 -64
2019-11-07 13:32:26 GMT 50.414398 0.463133 14,000 47 346 -64
2019-11-07 13:32:23 GMT 50.410625 0.456749 14,000 68 341 0
2019-11-07 13:32:20 GMT 50.408672 0.452889 14,000 57 346 -64
2019-11-07 13:32:17 GMT 50.405041 0.444204 14,000 57 346 -64
2019-11-07 13:32:14 GMT 50.402435 0.436558 14,000 68 341 0
2019-11-07 13:32:10 GMT 50.398384 0.420821 14,000 69 341 -64
2019-11-07 13:32:06 GMT 50.398384 0.420821 14,000 69 340 -64
2019-11-07 13:32:03 GMT 50.396484 0.412855 14,000 69 341 -64
2019-11-07 13:32:00 GMT 50.394985 0.406494 14,000 69 341 -64
2019-11-07 13:31:57 GMT 50.393372 0.399700 14,000 69 341 -64
2019-11-07 13:31:54 GMT 50.391541 0.392038 14,000 69 341 -64
2019-11-07 13:31:50 GMT 50.389618 0.384016 14,000 69 340 0
2019-11-07 13:31:46 GMT 50.387375 0.374547 14,000 69 340 0
2019-11-07 13:31:43 GMT 50.384045 0.360322 14,000 69 338 0
2019-11-07 13:31:40 GMT 50.384045 0.360322 14,000 69 339 0
2019-11-07 13:31:37 GMT 50.382603 0.354383 14,000 69 340 0
2019-11-07 13:31:34 GMT 50.380089 0.343842 14,000 69 340 0
2019-11-07 13:31:30 GMT 50.378647 0.337904 14,000 69 339 0
2019-11-07 13:31:27 GMT 50.375748 0.325542 14,000 69 340 0
2019-11-07 13:31:19 GMT 50.372360 0.311403 14,000 69 340 64
2019-11-07 13:31:16 GMT 50.371151 0.306355 14,000 69 340 64
2019-11-07 13:31:13 GMT 50.368961 0.297076 14,000 69 340 0
2019-11-07 13:31:10 GMT 50.367599 0.291427 14,000 69 340 0
2019-11-07 13:31:07 GMT 50.366264 0.285793 14,000 69 340 0
2019-11-07 13:31:03 GMT 50.364029 0.276465 14,000 69 340 0
2019-11-07 13:31:00 GMT 50.362446 0.269685 14,000 69 340 0
2019-11-07 13:30:57 GMT 50.358261 0.252252 14,000 69 340 0
2019-11-07 13:30:54 GMT 50.358261 0.252252 14,000 69 340 0
2019-11-07 13:30:50 GMT 50.355011 0.238736 14,000 69 340 0
2019-11-07 13:30:44 GMT 50.353645 0.232866 14,000 69 339 0
2019-11-07 13:30:40 GMT 50.351181 0.222473 14,000 69 339 0
2019-11-07 13:30:37 GMT 50.349457 0.215347 14,000 69 338 64
2019-11-07 13:30:34 GMT 50.347641 0.207728 14,000 69 338 -64
2019-11-07 13:30:31 GMT 50.345638 0.199313 14,000 69 338 -64
2019-11-07 13:30:28 GMT 50.344482 0.194646 14,000 69 338 -64
2019-11-07 13:30:25 GMT 50.342846 0.187658 14,000 69 338 -64
2019-11-07 13:30:22 GMT 50.341690 0.182937 14,000 69 339 -64
2019-11-07 13:30:19 GMT 50.339539 0.174047 14,000 69 339 -64
2019-11-07 13:30:16 GMT 50.337727 0.166354 14,000 69 339 0
2019-11-07 13:30:13 GMT 50.336285 0.160341 14,000 69 339 0
2019-11-07 13:30:10 GMT 50.332947 0.146508 14,000 69 337 128
2019-11-07 13:30:04 GMT 50.330883 0.137923 14,000 69 337 64
2019-11-07 13:30:01 GMT 50.327671 0.124487 14,000 69 333 -128
2019-11-07 13:29:58 GMT 50.327671 0.124487 14,000 69 337 0
2019-11-07 13:29:55 GMT 50.326366 0.118994 14,000 69 335 -64
2019-11-07 13:29:52 GMT 50.324879 0.112907 14,000 69 336 -192
2019-11-07 13:29:47 GMT 50.322178 0.101698 14,000 69 335 -128
2019-11-07 13:29:44 GMT 50.320362 0.093978 14,000 69 330 0
2019-11-07 13:29:40 GMT 50.317848 0.083659 14,000 69 326 0
2019-11-07 13:29:37 GMT 50.316032 0.076014 14,000 69 328 128
2019-11-07 13:29:34 GMT 50.315002 0.071628 14,000 69 326 128
2019-11-07 13:29:30 GMT 50.313194 0.064285 14,000 69 326 0
2019-11-07 13:29:27 GMT 50.311378 0.056491 14,000 69 326 0
2019-11-07 13:29:24 GMT 50.309143 0.047342 14,000 69 328 0
2019-11-07 13:29:21 GMT 50.308304 0.043945 14,000 69 328 -64
2019-11-07 13:29:16 GMT 50.305466 0.031994 14,000 69 328 -128
2019-11-07 13:29:12 GMT 50.302952 0.021824 14,000 69 326 -64
2019-11-07 13:29:09 GMT 50.301819 0.017058 14,000 69 325 64
2019-11-07 13:29:06 GMT 50.299622 0.008023 14,000 69 326 64
2019-11-07 13:29:03 GMT 50.298576 0.003712 14,000 69 325 64
2019-11-07 13:29:00 GMT 50.296993 -0.002672 14,000 69 325 0
2019-11-07 13:28:57 GMT 50.293736 -0.016034 14,000 68 325 0
2019-11-07 13:28:51 GMT 50.292160 -0.022479 14,000 68 326 128
2019-11-07 13:28:47 GMT 50.289684 -0.032439 14,000 68 325 128
2019-11-07 13:28:44 GMT 50.286705 -0.044539 14,000 68 325 0
2019-11-07 13:28:41 GMT 50.285110 -0.050956 14,000 68 326 128
2019-11-07 13:28:38 GMT 50.285110 -0.050956 14,000 68 325 -64
2019-11-07 13:28:35 GMT 50.283005 -0.059557 14,000 68 326 192
2019-11-07 13:28:28 GMT 50.279022 -0.075531 14,000 68 326 0
2019-11-07 13:28:25 GMT 50.278046 -0.079354 14,000 68 326 -64
2019-11-07 13:28:22 GMT 50.276325 -0.086183 14,000 68 326 -64
2019-11-07 13:28:19 GMT 50.274925 -0.091899 14,000 68 326 -64
2019-11-07 13:28:16 GMT 50.272972 -0.099545 14,000 68 326 64
2019-11-07 13:28:13 GMT 50.270691 -0.108527 14,000 68 326 64
2019-11-07 13:28:08 GMT 50.268860 -0.115646 14,000 68 326 0
2019-11-07 13:28:05 GMT 50.266846 -0.123524 14,000 68 326 0
2019-11-07 13:28:02 GMT 50.265385 -0.129312 14,000 68 327 64
2019-11-07 13:27:59 GMT 50.261662 -0.143713 14,000 68 327 0
2019-11-07 13:27:56 GMT 50.261662 -0.143713 14,000 68 327 -128
2019-11-07 13:27:53 GMT 50.258076 -0.157743 14,000 68 328 -64
2019-11-07 13:27:50 GMT 50.257004 -0.161974 14,000 68 327 64
2019-11-07 13:27:44 GMT 50.254631 -0.171402 14,000 68 327 0
2019-11-07 13:27:38 GMT 50.251648 -0.183154 14,000 68 327 -64
2019-11-07 13:27:34 GMT 50.249836 -0.190553 14,000 68 327 -128
2019-11-07 13:27:31 GMT 50.248077 -0.197682 14,000 69 327 -64
2019-11-07 13:27:26 GMT 50.244717 -0.211487 14,000 69 327 128
2019-11-07 13:27:23 GMT 50.244003 -0.214450 14,000 69 327 128
2019-11-07 13:27:20 GMT 50.242386 -0.221211 14,000 68 327 128
2019-11-07 13:27:17 GMT 50.240803 -0.227818 14,000 68 327 128
2019-11-07 13:27:14 GMT 50.239014 -0.234760 14,000 64 325 64
2019-11-07 13:27:11 GMT 50.237034 -0.241551 14,000 63 326 0
2019-11-07 13:27:05 GMT 50.232517 -0.253354 14,000 52 325 64
2019-11-07 13:27:02 GMT 50.228142 -0.262187 14,000 46 324 0
2019-11-07 13:26:58 GMT 50.221710 -0.272345 14,000 36 321 0
2019-11-07 13:26:52 GMT 50.218323 -0.276682 13,975 27 321 0
2019-11-07 13:26:48 GMT 50.208126 -0.286758 13,975 29 320 0
2019-11-07 13:26:44 GMT 50.208126 -0.286758 13,975 27 321 0
2019-11-07 13:26:41 GMT 50.204773 -0.289475 14,000 26 322 -64
2019-11-07 13:26:38 GMT 50.194702 -0.297570 14,000 26 322 -64
2019-11-07 13:26:34 GMT 50.194702 -0.297570 14,000 26 322 -64
2019-11-07 13:26:31 GMT 50.190899 -0.300565 14,000 26 322 -64
2019-11-07 13:26:27 GMT 50.185734 -0.304648 14,000 26 322 64
2019-11-07 13:26:24 GMT 50.182243 -0.307320 14,000 26 322 0
2019-11-07 13:26:21 GMT 50.172318 -0.314990 14,000 26 322 64
2019-11-07 13:26:18 GMT 50.172318 -0.314990 14,000 26 322 64
2019-11-07 13:26:14 GMT 50.168152 -0.318170 14,000 26 322 192
2019-11-07 13:26:10 GMT 50.161880 -0.323013 14,000 25 327 0
2019-11-07 13:26:07 GMT 50.159180 -0.325036 14,000 25 328 0
2019-11-07 13:26:03 GMT 50.153797 -0.329070 14,000 24 335 64
2019-11-07 13:25:59 GMT 50.148605 -0.332915 14,000 24 335 0
2019-11-07 13:25:56 GMT 50.139771 -0.339058 14,000 16 363 -512
2019-11-07 13:25:50 GMT 50.125946 -0.347587 14,000 18 356 -128
2019-11-07 13:25:46 GMT 50.125946 -0.347587 14,000 20 350 -64
2019-11-07 13:25:43 GMT 50.124573 -0.348382 14,000 19 353 -128
2019-11-07 13:25:40 GMT 50.119308 -0.351273 14,000 17 358 -192
2019-11-07 13:25:37 GMT 50.115299 -0.353344 14,025 17 360 -320
2019-11-07 13:25:34 GMT 50.110367 -0.355719 14,100 15 367 -768
2019-11-07 13:25:30 GMT 50.104156 -0.358574 14,075 15 367 -768
2019-11-07 13:25:27 GMT 50.094212 -0.362697 14,150 14 370 -1024
2019-11-07 13:25:24 GMT 50.094212 -0.362697 14,250 13 376 -1856
2019-11-07 13:25:21 GMT 50.088272 -0.365006 14,250 13 374 -1536
2019-11-07 13:25:14 GMT 50.076195 -0.369527 14,575 13 378 -2752
2019-11-07 13:25:09 GMT 50.060486 -0.375559 14,750 13 378 -2752
2019-11-07 13:25:05 GMT 50.060486 -0.375559 15,600 14 383 -2048
2019-11-07 13:25:02 GMT 50.056690 -0.377024 14,950 13 378 -2880
2019-11-07 13:24:57 GMT 50.049637 -0.379751 15,050 14 379 -2432
2019-11-07 13:24:54 GMT 50.042679 -0.382425 15,350 14 382 -2112
2019-11-07 13:24:51 GMT 50.038925 -0.383871 15,600 14 381 -2112
2019-11-07 13:24:48 GMT 50.033043 -0.386155 15,450 14 382 -2048
2019-11-07 13:24:45 GMT 50.028713 -0.387862 15,550 14 383 -2048
2019-11-07 13:24:42 GMT 50.021870 -0.390534 15,725 14 386 -2112
2019-11-07 13:24:38 GMT 50.015633 -0.393058 15,850 14 387 -2496
2019-11-07 13:24:34 GMT 50.009857 -0.395363 16,125 14 387 -2560
2019-11-07 13:24:31 GMT 50.004456 -0.397459 16,075 14 387 -2752
2019-11-07 13:24:28 GMT 49.998451 -0.399813 16,225 14 387 -2752
2019-11-07 13:24:25 GMT 49.993938 -0.401595 16,425 14 387 -2880
2019-11-07 13:24:22 GMT 49.988983 -0.403458 16,450 14 387 -2880
2019-11-07 13:24:19 GMT 49.983765 -0.405482 17,825 14 391 -2304
2019-11-07 13:24:16 GMT 49.977722 -0.407867 16,850 14 387 -2816
2019-11-07 13:24:13 GMT 49.971546 -0.410280 17,075 14 387 -2816
2019-11-07 13:24:10 GMT 49.967789 -0.411698 17,250 14 388 -2752
2019-11-07 13:24:06 GMT 49.960236 -0.414734 17,300 14 389 -2432
2019-11-07 13:24:01 GMT 49.945942 -0.420450 19,475 14 391 -2304
2019-11-07 13:23:57 GMT 49.945942 -0.420450 17,825 14 399 -2304
2019-11-07 13:23:52 GMT 49.936569 -0.424202 17,875 14 394 -2176
2019-11-07 13:23:49 GMT 49.930252 -0.426732 17,950 14 395 -2112
2019-11-07 13:23:46 GMT 49.923225 -0.429506 18,100 14 397 -2176
2019-11-07 13:23:43 GMT 49.914963 -0.432804 18,250 14 398 -2240
2019-11-07 13:23:37 GMT 49.910339 -0.434610 18,325 14 399 -2304
2019-11-07 13:23:34 GMT 49.904251 -0.437068 18,525 14 400 -2432
2019-11-07 13:23:31 GMT 49.899765 -0.438803 18,700 14 401 -2560
2019-11-07 13:23:27 GMT 49.892578 -0.441621 19,225 13 401 -2944
2019-11-07 13:23:24 GMT 49.886993 -0.443790 18,975 12 401 -2880
2019-11-07 13:23:21 GMT 49.881840 -0.445763 19,150 13 401 -2944
2019-11-07 13:23:18 GMT 49.875595 -0.448054 19,225 12 401 -2944
2019-11-07 13:23:15 GMT 49.869781 -0.450078 20,925 2 460 -2048
2019-11-07 13:23:12 GMT 49.856796 -0.454151 19,550 11 402 -2752
2019-11-07 13:23:09 GMT 49.856796 -0.454151 19,725 9 403 -2624
2019-11-07 13:23:05 GMT 49.845840 -0.457161 20,750 3 404 -2560
2019-11-07 13:23:02 GMT 49.845840 -0.457161 19,975 2 405 -2432
2019-11-07 13:22:56 GMT 49.836170 -0.459422 20,200 7 403 -2688
2019-11-07 13:22:52 GMT 49.826248 -0.461354 20,450 4 404 -2560
2019-11-07 13:22:48 GMT 49.821507 -0.462020 21,775 2 405 -2432
2019-11-07 13:22:42 GMT 49.803120 -0.463504 20,950 2 412 -2112
2019-11-07 13:22:34 GMT 49.793858 -0.464098 21,025 2 410 -2112
2019-11-07 13:22:31 GMT 49.778633 -0.465137 21,250 2 414 -2304
2019-11-07 13:22:28 GMT 49.778633 -0.465137 21,375 2 415 -2304
2019-11-07 13:22:25 GMT 49.775665 -0.465329 21,550 2 419 -1792
2019-11-07 13:22:22 GMT 49.768860 -0.465731 21,600 2 416 -2432
2019-11-07 13:22:19 GMT 49.764248 -0.466028 21,700 2 418 -2176
2019-11-07 13:22:16 GMT 49.759323 -0.466341 22,000 2 419 -1920
2019-11-07 13:22:12 GMT 49.751728 -0.466845 21,925 2 419 -1792
2019-11-07 13:22:09 GMT 49.746002 -0.467208 22,000 2 422 -1280
2019-11-07 13:22:06 GMT 49.739960 -0.467642 22,100 2 422 -1280
2019-11-07 13:22:02 GMT 49.731850 -0.468107 22,175 2 426 -1152
2019-11-07 13:21:59 GMT 49.725861 -0.468509 22,150 2 426 -1280
2019-11-07 13:21:56 GMT 49.720024 -0.468849 22,225 2 428 -2048
2019-11-07 13:21:52 GMT 49.711926 -0.469369 22,425 2 428 -1920
2019-11-07 13:21:49 GMT 49.706013 -0.469740 22,575 2 428 -2048
2019-11-07 13:21:45 GMT 49.699261 -0.470111 22,650 2 428 -2624
2019-11-07 13:21:42 GMT 49.691666 -0.470605 22,700 2 428 -2752
2019-11-07 13:21:38 GMT 49.685303 -0.470967 22,900 2 427 -3136
2019-11-07 13:21:34 GMT 49.675644 -0.471545 23,425 2 423 -3840
2019-11-07 13:21:31 GMT 49.670380 -0.471906 23,425 2 422 -3904
2019-11-07 13:21:28 GMT 49.666351 -0.472115 23,475 2 423 -3968
2019-11-07 13:21:24 GMT 49.650009 -0.473154 24,050 2 422 -2688
2019-11-07 13:21:20 GMT 49.650009 -0.473154 24,150 2 421 -3072
2019-11-07 13:21:16 GMT 49.642002 -0.473748 24,225 2 425 -2176
2019-11-07 13:21:13 GMT 49.635391 -0.474194 24,450 2 426 -1728
2019-11-07 13:21:10 GMT 49.629711 -0.474565 24,475 2 427 -1536
2019-11-07 13:21:07 GMT 49.624592 -0.474862 24,575 2 431 -1152
2019-11-07 13:21:04 GMT 49.615700 -0.475456 24,575 2 432 -1152
2019-11-07 13:21:01 GMT 49.612068 -0.475678 24,600 2 435 -1472
2019-11-07 13:20:57 GMT 49.595032 -0.476821 25,025 2 447 -2752
2019-11-07 13:20:53 GMT 49.595032 -0.476821 24,875 2 439 -3136
2019-11-07 13:20:50 GMT 49.589767 -0.477110 25,025 2 439 -2944
2019-11-07 13:20:47 GMT 49.583496 -0.477544 25,075 2 439 -3264
2019-11-07 13:20:44 GMT 49.577900 -0.477905 25,450 2 442 -2304
2019-11-07 13:20:40 GMT 49.568665 -0.478484 25,425 2 442 -2304
2019-11-07 13:20:37 GMT 49.561981 -0.478945 25,600 2 445 -2880
2019-11-07 13:20:34 GMT 49.558594 -0.479134 25,775 2 445 -2816
2019-11-07 13:20:31 GMT 49.548431 -0.479835 25,900 2 445 -3008
2019-11-07 13:20:28 GMT 49.544220 -0.480146 26,075 2 446 -3008
2019-11-07 13:20:25 GMT 49.538143 -0.480503 26,375 2 446 -3008
2019-11-07 13:20:22 GMT 49.533096 -0.480869 26,275 2 446 -3136
2019-11-07 13:20:18 GMT 49.523849 -0.481519 26,675 2 447 -2944
2019-11-07 13:20:15 GMT 49.517441 -0.481881 26,675 2 448 -2496
2019-11-07 13:20:12 GMT 49.513321 -0.482170 26,750 2 449 -2496
2019-11-07 13:20:08 GMT 49.503044 -0.482879 27,000 2 450 -2880
2019-11-07 13:20:05 GMT 49.490845 -0.483615 27,175 2 453 -2496
2019-11-07 13:20:02 GMT 49.490845 -0.483615 27,350 2 453 -2496
2019-11-07 13:19:59 GMT 49.484390 -0.484049 27,375 2 453 -2496
2019-11-07 13:19:55 GMT 49.469807 -0.485106 27,625 2 456 -2368
2019-11-07 13:19:51 GMT 49.461987 -0.485625 27,700 2 457 -2240
2019-11-07 13:19:48 GMT 49.461987 -0.485625 27,900 2 463 -2176
2019-11-07 13:19:45 GMT 49.455608 -0.486071 27,825 2 460 -2048
2019-11-07 13:19:42 GMT 49.449043 -0.486516 28,000 2 463 -2176
2019-11-07 13:19:39 GMT 49.441547 -0.487036 28,100 2 465 -2304
2019-11-07 13:19:36 GMT 49.436382 -0.487407 28,175 2 471 -2240
2019-11-07 13:19:32 GMT 49.427673 -0.487976 28,325 2 471 -2304
2019-11-07 13:19:29 GMT 49.419109 -0.488530 29,100 2 472 -2688
2019-11-07 13:19:26 GMT 49.415432 -0.488819 28,575 2 469 -4480
2019-11-07 13:19:23 GMT 49.407799 -0.489325 28,750 2 472 -3840
2019-11-07 13:19:20 GMT 49.401123 -0.489737 28,975 2 472 -3648
2019-11-07 13:19:17 GMT 49.389503 -0.490409 29,275 2 470 -4224
2019-11-07 13:19:14 GMT 49.379311 -0.490988 29,475 2 468 -4736
2019-11-07 13:19:10 GMT 49.379311 -0.490988 29,650 2 466 -5312
2019-11-07 13:19:07 GMT 49.362671 -0.491990 30,250 2 464 -5056
2019-11-07 13:19:02 GMT 49.362671 -0.491990 30,475 2 462 -3904
2019-11-07 13:18:59 GMT 49.357197 -0.492289 30,400 2 462 -3904
2019-11-07 13:18:56 GMT 49.349514 -0.492722 30,600 2 463 -3328
2019-11-07 13:18:53 GMT 49.343510 -0.493084 31,025 2 464 -2816
2019-11-07 13:18:50 GMT 49.336479 -0.493445 30,925 2 464 -3136
2019-11-07 13:18:47 GMT 49.328754 -0.493879 31,300 2 461 -3264
2019-11-07 13:18:43 GMT 49.322250 -0.494314 31,300 2 462 -3968
2019-11-07 13:18:39 GMT 49.314461 -0.494746 32,125 2 461 -2944
2019-11-07 13:18:36 GMT 49.307667 -0.495180 32,100 2 461 -3008
2019-11-07 13:18:32 GMT 49.299751 -0.495758 32,650 2 472 -1984
2019-11-07 13:18:29 GMT 49.286297 -0.496698 32,150 2 464 -2368
2019-11-07 13:18:23 GMT 49.278900 -0.497202 33,875 2 473 -2624
2019-11-07 13:18:20 GMT 49.272446 -0.497624 32,475 2 467 -1984
2019-11-07 13:18:14 GMT 49.260460 -0.498432 32,625 2 469 -1792
2019-11-07 13:18:11 GMT 49.254177 -0.498866 32,900 2 473 -2560
2019-11-07 13:18:08 GMT 49.245239 -0.499444 32,825 2 473 -2688
2019-11-07 13:18:05 GMT 49.238720 -0.499806 32,975 2 473 -2624
2019-11-07 13:18:02 GMT 49.221313 -0.501005 33,200 2 476 -2176
2019-11-07 13:17:57 GMT 49.221313 -0.501005 33,550 2 482 -3968
2019-11-07 13:17:53 GMT 49.211765 -0.501613 33,500 2 477 -1792
2019-11-07 13:17:49 GMT 49.204880 -0.502061 33,600 2 478 -1728
2019-11-07 13:17:46 GMT 49.199013 -0.502480 33,675 2 479 -1536
2019-11-07 13:17:43 GMT 49.190918 -0.503047 33,725 2 482 -1344
2019-11-07 13:17:39 GMT 49.182346 -0.503636 33,825 2 483 -1408
2019-11-07 13:17:36 GMT 49.163223 -0.504949 34,425 2 485 -3264
2019-11-07 13:17:32 GMT 49.163223 -0.504949 34,250 2 485 -3136
2019-11-07 13:17:29 GMT 49.153671 -0.505516 34,425 2 481 -3776
2019-11-07 13:17:26 GMT 49.153671 -0.505516 35,150 2 481 -3712
2019-11-07 13:17:21 GMT 49.143196 -0.506166 35,025 2 481 -3328
2019-11-07 13:17:18 GMT 49.137497 -0.506568 34,925 2 480 -3264
2019-11-07 13:17:15 GMT 49.129650 -0.507106 35,325 2 480 -3072
2019-11-07 13:17:12 GMT 49.116337 -0.507973 35,475 2 480 -2944
2019-11-07 13:17:09 GMT 49.116337 -0.507973 35,700 2 479 -2496
2019-11-07 13:17:06 GMT 49.107605 -0.508540 35,625 2 479 -2432
2019-11-07 13:17:03 GMT 49.101837 -0.508892 35,775 2 479 -2176
2019-11-07 13:16:59 GMT 49.092773 -0.509456 35,925 2 481 -896
2019-11-07 13:16:55 GMT 49.085449 -0.509878 35,925 2 484 -256
2019-11-07 13:16:52 GMT 49.077789 -0.510358 36,025 2 482 64
2019-11-07 13:16:48 GMT 49.070801 -0.510794 36,025 2 485 -64
2019-11-07 13:16:45 GMT 49.063202 -0.511287 36,025 2 484 -256
2019-11-07 13:16:42 GMT 49.055832 -0.511709 36,025 2 485 -128
2019-11-07 13:16:37 GMT 49.044739 -0.512382 36,050 2 485 0
2019-11-07 13:16:34 GMT 49.038803 -0.512766 36,025 2 485 0
2019-11-07 13:16:29 GMT 49.024704 -0.513681 36,025 2 485 0
2019-11-07 13:16:26 GMT 49.019924 -0.513972 36,025 2 485 0
2019-11-07 13:16:22 GMT 49.010834 -0.514526 36,025 2 485 0
2019-11-07 13:16:19 GMT 49.004791 -0.514949 36,025 2 485 0
2019-11-07 13:16:16 GMT 48.997768 -0.515346 36,025 2 484 0
2019-11-07 13:16:13 GMT 48.989014 -0.515851 36,025 2 484 0
2019-11-07 13:16:09 GMT 48.982407 -0.516287 36,025 2 482 64
2019-11-07 13:16:06 GMT 48.975494 -0.516710 36,025 2 484 0
2019-11-07 13:16:03 GMT 48.968903 -0.517152 36,025 2 483 64
2019-11-07 13:16:00 GMT 48.962082 -0.517555 36,000 2 483 64
2019-11-07 13:15:57 GMT 48.948841 -0.518381 36,025 2 483 64
2019-11-07 13:15:54 GMT 48.948841 -0.518381 36,000 2 483 64
2019-11-07 13:15:50 GMT 48.937668 -0.519104 36,000 2 482 64
2019-11-07 13:15:46 GMT 48.925735 -0.519879 36,000 2 483 64
2019-11-07 13:15:39 GMT 48.915417 -0.520622 36,000 2 482 64
2019-11-07 13:15:35 GMT 48.906712 -0.521200 35,975 2 482 128
2019-11-07 13:15:32 GMT 48.900787 -0.521569 35,975 2 482 128
2019-11-07 13:15:29 GMT 48.891815 -0.522212 35,975 2 480 0
2019-11-07 13:15:26 GMT 48.887112 -0.522501 35,975 2 482 128
2019-11-07 13:15:23 GMT 48.877102 -0.523152 35,975 2 482 0
2019-11-07 13:15:18 GMT 48.869747 -0.523658 35,950 2 482 0
2019-11-07 13:15:15 GMT 48.861877 -0.524175 35,950 2 482 64
2019-11-07 13:15:12 GMT 48.854965 -0.524668 35,975 2 482 0
2019-11-07 13:15:06 GMT 48.843540 -0.525392 35,975 2 481 0
2019-11-07 13:15:03 GMT 48.823654 -0.526780 35,975 2 481 -64
2019-11-07 13:14:58 GMT 48.823654 -0.526780 35,975 2 481 -64
2019-11-07 13:14:54 GMT 48.815746 -0.527344 35,975 2 480 0
2019-11-07 13:14:50 GMT 48.806671 -0.527922 35,975 2 478 64
2019-11-07 13:14:47 GMT 48.798157 -0.528471 35,975 2 480 0
2019-11-07 13:14:44 GMT 48.792938 -0.528789 35,975 2 480 0
2019-11-07 13:14:36 GMT 48.776230 -0.529879 35,975 2 480 64
2019-11-07 13:14:33 GMT 48.766586 -0.530452 35,975 2 480 64
2019-11-07 13:14:29 GMT 48.758816 -0.530885 35,975 2 480 0
2019-11-07 13:14:25 GMT 48.751740 -0.531319 35,975 2 480 0
2019-11-07 13:14:22 GMT 48.743866 -0.531781 35,950 2 479 0
2019-11-07 13:14:16 GMT 48.730930 -0.532548 35,950 2 479 0
2019-11-07 13:14:13 GMT 48.725388 -0.532837 35,975 2 479 0
2019-11-07 13:14:09 GMT 48.716858 -0.533400 35,975 2 479 0
2019-11-07 13:14:06 GMT 48.710220 -0.533823 35,975 2 479 0
2019-11-07 13:14:03 GMT 48.702625 -0.534282 35,975 2 478 64
2019-11-07 13:14:00 GMT 48.697220 -0.534598 35,975 2 478 64
2019-11-07 13:13:56 GMT 48.687057 -0.535302 35,975 2 478 64
2019-11-07 13:13:53 GMT 48.680649 -0.535724 35,950 2 478 64
2019-11-07 13:13:50 GMT 48.675018 -0.536089 35,950 2 478 0
2019-11-07 13:13:47 GMT 48.666046 -0.536640 35,950 2 478 0
2019-11-07 13:13:43 GMT 48.659409 -0.537133 35,950 2 478 0
2019-11-07 13:13:40 GMT 48.652130 -0.537626 35,950 2 478 0
2019-11-07 13:13:37 GMT 48.644394 -0.538119 35,950 2 478 0
2019-11-07 13:13:34 GMT 48.630840 -0.538981 35,950 2 478 0
2019-11-07 13:13:31 GMT 48.630840 -0.538981 35,950 2 478 0
2019-11-07 13:13:26 GMT 48.612808 -0.540161 35,950 2 478 0
2019-11-07 13:13:23 GMT 48.612808 -0.540161 35,950 2 478 0
2019-11-07 13:13:16 GMT 48.598396 -0.541077 35,950 2 478 0
2019-11-07 13:13:12 GMT 48.589783 -0.541583 35,950 2 478 0
2019-11-07 13:13:09 GMT 48.584663 -0.541944 35,950 2 478 0
2019-11-07 13:13:06 GMT 48.576645 -0.542415 35,950 2 478 -64
2019-11-07 13:13:02 GMT 48.565384 -0.543119 35,950 2 478 0
2019-11-07 13:12:55 GMT 48.545471 -0.544387 35,950 2 478 0
2019-11-07 13:12:52 GMT 48.545471 -0.544387 35,950 2 478 0
2019-11-07 13:12:49 GMT 48.538994 -0.544763 35,950 2 478 -64
2019-11-07 13:12:46 GMT 48.525146 -0.545584 35,950 2 479 -64
2019-11-07 13:12:43 GMT 48.517765 -0.546064 35,975 2 479 -64
2019-11-07 13:12:40 GMT 48.517765 -0.546064 35,975 2 479 0
2019-11-07 13:12:34 GMT 48.505463 -0.546781 35,975 2 479 0
2019-11-07 13:12:31 GMT 48.500076 -0.547148 35,975 2 481 -64
2019-11-07 13:12:28 GMT 48.492535 -0.547582 35,975 2 480 0
2019-11-07 13:12:25 GMT 48.486191 -0.547978 35,975 2 480 0
2019-11-07 13:12:21 GMT 48.477356 -0.548542 36,000 2 481 -64
2019-11-07 13:12:15 GMT 48.463577 -0.549387 35,975 2 481 -64
2019-11-07 13:12:12 GMT 48.457581 -0.549739 36,000 2 482 -64
2019-11-07 13:12:09 GMT 48.450485 -0.550162 36,000 2 482 -64
2019-11-07 13:12:05 GMT 48.442772 -0.550690 36,000 2 483 -64
2019-11-07 13:12:02 GMT 48.434345 -0.551196 36,000 2 482 -64
2019-11-07 13:11:59 GMT 48.426292 -0.551702 36,000 2 483 -64
2019-11-07 13:11:54 GMT 48.417480 -0.552204 36,000 2 483 0
2019-11-07 13:11:51 GMT 48.410931 -0.552641 36,000 2 483 0
2019-11-07 13:11:48 GMT 48.404114 -0.553049 36,000 2 488 0
2019-11-07 13:11:44 GMT 48.395416 -0.553612 36,000 2 484 0
2019-11-07 13:11:41 GMT 48.389603 -0.553964 36,000 2 484 0
2019-11-07 13:11:38 GMT 48.382874 -0.554387 36,000 2 485 0
2019-11-07 13:11:35 GMT 48.374943 -0.554882 36,000 2 486 0
2019-11-07 13:11:32 GMT 48.366192 -0.555460 36,000 2 486 0
2019-11-07 13:11:28 GMT 48.357441 -0.556038 36,000 2 486 0
2019-11-07 13:11:25 GMT 48.350372 -0.556500 36,000 2 487 0
2019-11-07 13:11:21 GMT 48.343288 -0.556978 36,000 2 487 0
2019-11-07 13:11:18 GMT 48.337097 -0.557345 36,000 2 488 0
2019-11-07 13:11:15 GMT 48.320759 -0.558423 36,000 2 488 0
2019-11-07 13:11:11 GMT 48.320759 -0.558423 36,000 2 489 0
2019-11-07 13:11:08 GMT 48.314987 -0.558753 36,000 2 489 0
2019-11-07 13:11:05 GMT 48.306091 -0.559363 36,000 2 489 -64
2019-11-07 13:11:01 GMT 48.286915 -0.560447 36,000 2 488 -64
2019-11-07 13:10:57 GMT 48.286915 -0.560447 36,000 2 486 0
2019-11-07 13:10:54 GMT 48.283630 -0.560655 36,000 2 488 0
2019-11-07 13:10:51 GMT 48.275757 -0.561077 36,000 2 487 0
2019-11-07 13:10:47 GMT 48.258797 -0.562037 36,000 2 486 64
2019-11-07 13:10:44 GMT 48.258797 -0.562037 36,000 2 486 64
2019-11-07 13:10:40 GMT 48.252182 -0.562415 36,000 2 486 64
2019-11-07 13:10:37 GMT 48.241524 -0.563122 36,000 2 486 0
2019-11-07 13:10:34 GMT 48.238129 -0.563338 36,000 2 486 0
2019-11-07 13:10:30 GMT 48.229706 -0.563824 36,000 2 486 0
2019-11-07 13:10:27 GMT 48.221878 -0.564317 36,000 2 485 -64
2019-11-07 13:10:24 GMT 48.214806 -0.564784 36,000 2 486 0
2019-11-07 13:10:21 GMT 48.207169 -0.565290 36,000 2 486 0
2019-11-07 13:10:17 GMT 48.196518 -0.565937 36,000 2 486 0
2019-11-07 13:10:14 GMT 48.191803 -0.566218 36,000 2 483 64
2019-11-07 13:10:10 GMT 48.183929 -0.566711 36,000 2 486 -64
2019-11-07 13:10:07 GMT 48.169743 -0.567603 36,000 2 485 -64
2019-11-07 13:10:04 GMT 48.161457 -0.568181 36,000 2 483 0
2019-11-07 13:10:00 GMT 48.161457 -0.568181 36,000 2 484 -64
2019-11-07 13:09:56 GMT 48.149918 -0.568886 36,000 2 483 64
2019-11-07 13:09:53 GMT 48.145020 -0.569160 36,000 2 482 128
2019-11-07 13:09:50 GMT 48.139343 -0.569528 36,000 2 481 192
2019-11-07 13:09:46 GMT 48.130638 -0.570092 35,950 2 480 320
2019-11-07 13:09:43 GMT 48.122910 -0.570514 35,975 2 479 128
2019-11-07 13:09:39 GMT 48.114063 -0.571078 35,950 2 479 128
2019-11-07 13:09:36 GMT 48.106430 -0.571564 35,950 2 477 -64
2019-11-07 13:09:33 GMT 48.100800 -0.571852 35,950 2 477 -64
2019-11-07 13:09:30 GMT 48.093956 -0.572275 35,950 2 477 -64
2019-11-07 13:09:25 GMT 48.084412 -0.572868 35,950 2 476 0
2019-11-07 13:09:22 GMT 48.076824 -0.573331 35,950 2 476 0
2019-11-07 13:09:19 GMT 48.071518 -0.573613 35,950 2 478 0
2019-11-07 13:09:16 GMT 48.063416 -0.574106 35,950 2 475 0
2019-11-07 13:09:13 GMT 48.055161 -0.574654 35,950 2 475 -64
2019-11-07 13:09:10 GMT 48.049484 -0.574997 35,950 2 475 -64
2019-11-07 13:09:04 GMT 48.034561 -0.575821 35,975 2 475 -64
2019-11-07 13:09:01 GMT 48.025661 -0.576360 35,975 2 476 -64
2019-11-07 13:08:52 GMT 48.005173 -0.577538 36,000 2 476 -64
2019-11-07 13:08:49 GMT 48.005173 -0.577538 36,000 2 476 -64
2019-11-07 13:08:44 GMT 47.991867 -0.578332 36,000 2 476 -128
2019-11-07 13:08:41 GMT 47.988235 -0.578568 36,000 2 476 -128
2019-11-07 13:08:38 GMT 47.968544 -0.579740 36,000 2 478 0
2019-11-07 13:08:33 GMT 47.968544 -0.579740 36,000 2 477 0
2019-11-07 13:08:30 GMT 47.963051 -0.580092 36,000 2 477 0
2019-11-07 13:08:26 GMT 47.954773 -0.580627 36,000 2 479 0
2019-11-07 13:08:22 GMT 47.943172 -0.581360 36,000 2 479 0
2019-11-07 13:08:19 GMT 47.937866 -0.581642 36,000 2 479 0
2019-11-07 13:08:13 GMT 47.918060 -0.582893 36,000 2 479 0
2019-11-07 13:08:06 GMT 47.909328 -0.583473 36,000 2 479 -64
2019-11-07 13:08:02 GMT 47.892292 -0.584529 36,000 2 479 -64
2019-11-07 13:07:59 GMT 47.892292 -0.584529 36,025 2 478 0
2019-11-07 13:07:55 GMT 47.873764 -0.585656 36,000 2 478 64
2019-11-07 13:07:50 GMT 47.873764 -0.585656 36,000 2 478 64
2019-11-07 13:07:47 GMT 47.868118 -0.585983 36,000 2 478 64
2019-11-07 13:07:44 GMT 47.860729 -0.586430 36,000 2 478 0
2019-11-07 13:07:41 GMT 47.847794 -0.587219 36,000 2 479 0
2019-11-07 13:07:34 GMT 47.840057 -0.587700 36,000 2 479 0
2019-11-07 13:07:31 GMT 47.831223 -0.588249 36,000 2 479 0
2019-11-07 13:07:28 GMT 47.825813 -0.588543 36,000 2 479 0
2019-11-07 13:07:23 GMT 47.815620 -0.589177 36,000 2 479 -64
2019-11-07 13:07:20 GMT 47.809113 -0.589622 36,000 2 479 -64
2019-11-07 13:07:17 GMT 47.801468 -0.590093 36,000 2 478 0
2019-11-07 13:07:12 GMT 47.790668 -0.590797 36,000 2 477 0
2019-11-07 13:07:09 GMT 47.783936 -0.591202 36,000 2 476 0
2019-11-07 13:07:06 GMT 47.778099 -0.591572 36,000 2 474 256
2019-11-07 13:07:03 GMT 47.771301 -0.592064 36,000 2 475 256
2019-11-07 13:07:00 GMT 47.764618 -0.592506 35,975 2 474 256
2019-11-07 13:06:57 GMT 47.757057 -0.592980 35,975 2 473 192
2019-11-07 13:06:54 GMT 47.750381 -0.593399 35,950 2 472 64
2019-11-07 13:06:51 GMT 47.743835 -0.593880 35,950 2 473 192
2019-11-07 13:06:48 GMT 47.732151 -0.594600 35,950 2 473 0
2019-11-07 13:06:42 GMT 47.722374 -0.595234 35,950 2 472 0
2019-11-07 13:06:39 GMT 47.717651 -0.595596 35,950 2 473 64
2019-11-07 13:06:36 GMT 47.711105 -0.596008 35,950 2 473 64
2019-11-07 13:06:32 GMT 47.702179 -0.596626 35,950 2 473 0
2019-11-07 13:06:28 GMT 47.691559 -0.597276 35,950 2 473 0
2019-11-07 13:06:22 GMT 47.678242 -0.598121 35,950 2 473 64
2019-11-07 13:06:19 GMT 47.667252 -0.598824 35,950 2 472 0
2019-11-07 13:06:13 GMT 47.659946 -0.599318 35,950 2 472 0
2019-11-07 13:06:10 GMT 47.654453 -0.599600 35,950 2 473 0
2019-11-07 13:06:07 GMT 47.642258 -0.600304 35,950 2 473 0
2019-11-07 13:06:04 GMT 47.642258 -0.600304 35,950 2 473 0
2019-11-07 13:06:01 GMT 47.635162 -0.600746 35,950 2 473 -64
2019-11-07 13:05:58 GMT 47.629784 -0.601079 35,950 2 473 -128
2019-11-07 13:05:55 GMT 47.622147 -0.601501 35,950 2 473 -64
2019-11-07 13:05:52 GMT 47.615166 -0.601854 35,950 2 473 -64
2019-11-07 13:05:49 GMT 47.608521 -0.602257 35,950 2 473 -64
2019-11-07 13:05:45 GMT 47.601387 -0.602699 36,000 2 473 -64
2019-11-07 13:05:41 GMT 47.591446 -0.603287 35,975 2 473 0
2019-11-07 13:05:38 GMT 47.585541 -0.603630 35,975 2 474 -64
2019-11-07 13:05:35 GMT 47.578537 -0.604042 35,975 2 474 -64
2019-11-07 13:05:32 GMT 47.571991 -0.604385 35,975 2 474 64
2019-11-07 13:05:29 GMT 47.562469 -0.604952 35,975 2 475 0
2019-11-07 13:05:21 GMT 47.548096 -0.605759 35,975 2 476 0
2019-11-07 13:05:18 GMT 47.541382 -0.606150 35,975 2 476 -64
2019-11-07 13:05:15 GMT 47.532486 -0.606651 35,975 2 476 -64
2019-11-07 13:05:10 GMT 47.523598 -0.607206 35,975 2 477 -128
2019-11-07 13:05:06 GMT 47.513027 -0.607840 36,000 2 479 0
2019-11-07 13:05:02 GMT 47.505432 -0.608231 36,000 2 479 0
2019-11-07 13:04:59 GMT 47.499577 -0.608544 36,000 2 477 0
2019-11-07 13:04:56 GMT 47.492661 -0.608986 36,000 2 478 0
2019-11-07 13:04:50 GMT 47.480862 -0.609600 36,000 2 478 -64
2019-11-07 13:04:47 GMT 47.474018 -0.610023 36,000 2 478 -64
2019-11-07 13:04:43 GMT 47.463871 -0.610586 36,000 2 479 0
2019-11-07 13:04:39 GMT 47.456223 -0.611046 36,000 2 479 0
2019-11-07 13:04:36 GMT 47.447903 -0.611572 36,000 2 481 0
2019-11-07 13:04:32 GMT 47.440933 -0.611938 36,000 2 481 0
2019-11-07 13:04:29 GMT 47.433052 -0.612417 36,000 2 481 0
2019-11-07 13:04:26 GMT 47.425140 -0.612900 36,000 2 481 -64
2019-11-07 13:04:18 GMT 47.407265 -0.614037 36,000 2 481 0
2019-11-07 13:04:13 GMT 47.398270 -0.614616 36,000 2 480 -64
2019-11-07 13:04:10 GMT 47.384872 -0.615446 36,000 2 480 -64
2019-11-07 13:04:07 GMT 47.384872 -0.615446 36,000 2 480 0
2019-11-07 13:04:00 GMT 47.364899 -0.616784 36,000 2 479 0
2019-11-07 13:03:54 GMT 47.346909 -0.617912 36,000 2 479 0
2019-11-07 13:03:48 GMT 47.343487 -0.618122 36,000 2 479 0
2019-11-07 13:03:42 GMT 47.329880 -0.618942 36,000 2 479 64
2019-11-07 13:03:37 GMT 47.317062 -0.619698 36,000 2 479 64
2019-11-07 13:03:32 GMT 47.306854 -0.620247 36,000 2 480 0
2019-11-07 13:03:27 GMT 47.295910 -0.620868 36,000 2 481 -64
2019-11-07 13:03:24 GMT 47.289551 -0.621208 36,025 2 481 -256
2019-11-07 13:03:17 GMT 47.271656 -0.622136 36,050 2 482 -192
2019-11-07 13:03:12 GMT 47.261879 -0.622699 36,050 2 482 0
2019-11-07 13:03:09 GMT 47.254990 -0.623052 36,050 2 482 0
2019-11-07 13:03:06 GMT 47.249405 -0.623404 36,050 2 482 0
2019-11-07 13:03:02 GMT 47.238277 -0.624038 36,050 2 482 0
2019-11-07 13:02:56 GMT 47.226269 -0.624742 36,050 2 482 0
2019-11-07 13:02:53 GMT 47.219696 -0.625122 36,050 2 483 0
2019-11-07 13:02:50 GMT 47.213882 -0.625534 36,050 2 483 0
2019-11-07 13:02:47 GMT 47.199966 -0.626362 36,050 2 483 0
2019-11-07 13:02:41 GMT 47.181335 -0.627525 36,050 2 483 0
2019-11-07 13:02:36 GMT 47.181335 -0.627525 36,050 2 483 -64
2019-11-07 13:02:32 GMT 47.173153 -0.627981 36,050 2 483 0
2019-11-07 13:02:29 GMT 47.166824 -0.628349 36,050 2 484 0
2019-11-07 13:02:25 GMT 47.156857 -0.628967 36,050 2 484 0
2019-11-07 13:02:20 GMT 47.144257 -0.629723 36,050 2 484 0
2019-11-07 13:02:16 GMT 47.137299 -0.630135 36,050 2 484 64
2019-11-07 13:02:13 GMT 47.131626 -0.630446 36,050 2 484 64
2019-11-07 13:02:10 GMT 47.121918 -0.631027 36,050 2 484 128
2019-11-07 13:02:05 GMT 47.112865 -0.631573 36,025 2 484 64
2019-11-07 13:02:02 GMT 47.107048 -0.631925 36,025 2 484 64
2019-11-07 13:01:59 GMT 47.099350 -0.632401 36,025 2 484 64
2019-11-07 13:01:55 GMT 47.090755 -0.632982 36,025 2 483 64
2019-11-07 13:01:52 GMT 47.074879 -0.633967 36,025 2 483 64
2019-11-07 13:01:49 GMT 47.074879 -0.633967 36,025 2 483 64
2019-11-07 13:01:45 GMT 47.067398 -0.634392 36,025 2 483 64
2019-11-07 13:01:39 GMT 47.053280 -0.635235 36,000 2 482 64
2019-11-07 13:01:35 GMT 47.047348 -0.635628 36,000 2 482 64
2019-11-07 13:01:32 GMT 47.039337 -0.636108 36,000 2 482 64
2019-11-07 13:01:28 GMT 47.029678 -0.636714 36,000 2 481 0
2019-11-07 13:01:25 GMT 47.020786 -0.637277 36,000 2 481 0
2019-11-07 13:01:21 GMT 47.014893 -0.637619 36,000 2 480 0
2019-11-07 13:01:17 GMT 47.005470 -0.638263 36,000 2 479 0
2019-11-07 13:01:14 GMT 46.992622 -0.639038 36,000 2 479 0
2019-11-07 13:01:11 GMT 46.992622 -0.639038 36,000 2 479 0
2019-11-07 13:01:07 GMT 46.973694 -0.640228 36,000 2 478 0
2019-11-07 13:01:03 GMT 46.973694 -0.640228 36,000 2 478 0
2019-11-07 13:01:00 GMT 46.968090 -0.640587 36,000 2 478 0
2019-11-07 13:00:57 GMT 46.953518 -0.641503 36,000 2 477 64
2019-11-07 13:00:50 GMT 46.946255 -0.641996 36,000 2 477 64
2019-11-07 13:00:47 GMT 46.937645 -0.642489 36,000 2 478 64
2019-11-07 13:00:41 GMT 46.919350 -0.643616 36,000 2 478 0
2019-11-07 13:00:38 GMT 46.919350 -0.643616 36,000 2 478 -64
2019-11-07 13:00:35 GMT 46.914597 -0.643867 36,000 2 477 -64
2019-11-07 13:00:32 GMT 46.905991 -0.644417 36,000 2 478 -64
2019-11-07 13:00:26 GMT 46.890205 -0.645306 36,000 2 476 0
2019-11-07 13:00:22 GMT 46.884064 -0.645658 36,000 2 476 0
2019-11-07 13:00:18 GMT 46.875496 -0.646221 36,000 2 475 64
2019-11-07 13:00:15 GMT 46.868591 -0.646614 36,000 2 474 0
2019-11-07 13:00:12 GMT 46.861904 -0.646957 36,000 2 474 64
2019-11-07 13:00:06 GMT 46.848450 -0.647657 36,000 2 474 -64
2019-11-07 13:00:03 GMT 46.842861 -0.647987 36,000 2 474 0
2019-11-07 12:59:56 GMT 46.828995 -0.648729 36,000 2 473 64
2019-11-07 12:59:53 GMT 46.815769 -0.649429 36,000 2 473 0
2019-11-07 12:59:45 GMT 46.801804 -0.650253 36,000 2 473 -64
2019-11-07 12:59:39 GMT 46.789902 -0.650940 36,000 2 473 64
2019-11-07 12:59:36 GMT 46.783649 -0.651283 36,000 2 474 0
2019-11-07 12:59:33 GMT 46.777176 -0.651677 36,000 2 474 64
2019-11-07 12:59:30 GMT 46.770630 -0.652079 36,000 2 475 64
2019-11-07 12:59:25 GMT 46.759117 -0.652794 36,000 2 477 64
2019-11-07 12:59:21 GMT 46.751083 -0.653285 36,000 2 479 0
2019-11-07 12:59:15 GMT 46.736069 -0.654155 36,000 2 480 0
2019-11-07 12:59:12 GMT 46.731277 -0.654442 36,000 2 480 0
2019-11-07 12:59:04 GMT 46.713455 -0.655495 36,000 2 479 -64
2019-11-07 12:59:00 GMT 46.705627 -0.655952 36,000 2 478 -64
2019-11-07 12:58:54 GMT 46.691475 -0.656776 36,000 2 477 64
2019-11-07 12:58:51 GMT 46.682327 -0.657237 36,000 2 476 0
2019-11-07 12:58:43 GMT 46.667404 -0.658041 36,000 2 475 64
2019-11-07 12:58:40 GMT 46.660812 -0.658443 36,000 2 475 0
2019-11-07 12:58:34 GMT 46.647446 -0.659180 36,000 2 476 0
2019-11-07 12:58:31 GMT 46.640499 -0.659592 36,000 2 477 64
2019-11-07 12:58:24 GMT 46.622955 -0.660653 36,000 2 479 0
2019-11-07 12:58:20 GMT 46.616013 -0.661034 36,000 2 478 0
2019-11-07 12:58:13 GMT 46.600746 -0.661858 36,000 2 475 192
2019-11-07 12:58:09 GMT 46.592056 -0.662328 36,000 2 477 64
2019-11-07 12:58:02 GMT 46.577499 -0.663132 35,975 2 477 192
2019-11-07 12:57:59 GMT 46.570679 -0.663534 35,975 2 477 320
2019-11-07 12:57:52 GMT 46.547863 -0.664810 35,825 2 477 896
2019-11-07 12:57:43 GMT 46.534222 -0.665565 35,750 2 477 768
2019-11-07 12:57:40 GMT 46.526825 -0.666013 35,725 2 477 768
2019-11-07 12:57:31 GMT 46.509083 -0.667076 35,625 2 477 1088
2019-11-07 12:57:28 GMT 46.502838 -0.667419 35,450 2 477 1280
2019-11-07 12:57:21 GMT 46.487717 -0.668312 35,400 2 478 1088
2019-11-07 12:57:18 GMT 46.480640 -0.668724 35,175 2 478 704
2019-11-07 12:57:11 GMT 46.464348 -0.669617 35,250 2 478 768
2019-11-07 12:57:08 GMT 46.457611 -0.670032 35,175 2 472 576
2019-11-07 12:57:01 GMT 46.443695 -0.670769 35,125 2 476 320
2019-11-07 12:56:58 GMT 46.437103 -0.671171 35,125 2 476 256
2019-11-07 12:56:51 GMT 46.413208 -0.672444 35,100 2 472 576
2019-11-07 12:56:42 GMT 46.399826 -0.673256 34,975 2 472 1536
2019-11-07 12:56:36 GMT 46.386932 -0.674011 34,875 2 474 2112
2019-11-07 12:56:33 GMT 46.379379 -0.674520 34,725 2 476 2048
2019-11-07 12:56:29 GMT 46.370819 -0.675056 34,600 2 477 1792
2019-11-07 12:56:26 GMT 46.364960 -0.675385 34,525 2 478 1472
2019-11-07 12:56:20 GMT 46.351925 -0.676140 34,425 2 478 960
2019-11-07 12:56:16 GMT 46.342529 -0.676731 34,350 2 478 960
2019-11-07 12:56:12 GMT 46.335938 -0.677133 33,725 2 478 640
2019-11-07 12:56:09 GMT 46.328091 -0.677582 34,250 2 478 1088
2019-11-07 12:56:06 GMT 46.321430 -0.677994 34,225 2 479 1600
2019-11-07 12:55:59 GMT 46.307419 -0.678875 34,000 2 479 1280
2019-11-07 12:55:56 GMT 46.299553 -0.679367 33,975 2 479 640
2019-11-07 12:55:49 GMT 46.284470 -0.680328 33,875 2 478 640
2019-11-07 12:55:46 GMT 46.277859 -0.680672 33,850 2 478 640
2019-11-07 12:55:39 GMT 46.261566 -0.681702 33,725 2 477 1408
2019-11-07 12:55:36 GMT 46.254822 -0.682090 33,675 2 476 1280
2019-11-07 12:55:32 GMT 46.246445 -0.682559 33,625 2 476 1216
2019-11-07 12:55:29 GMT 46.239964 -0.682938 33,475 2 477 1408
2019-11-07 12:55:24 GMT 46.229736 -0.683497 33,250 1 478 1472
2019-11-07 12:55:21 GMT 46.223251 -0.683830 33,400 2 477 1408
2019-11-07 12:55:18 GMT 46.215942 -0.684174 33,225 2 475 64
2019-11-07 12:55:12 GMT 46.201492 -0.684904 33,150 1 478 1536
2019-11-07 12:55:07 GMT 46.191101 -0.685373 32,975 1 479 1536
2019-11-07 12:55:03 GMT 46.182846 -0.685753 32,925 1 479 1536
2019-11-07 12:55:00 GMT 46.174885 -0.686165 32,850 1 479 1024
2019-11-07 12:54:55 GMT 46.157383 -0.686920 32,775 1 477 192
2019-11-07 12:54:52 GMT 46.157383 -0.686920 32,775 1 477 128
2019-11-07 12:54:49 GMT 46.152191 -0.687181 32,750 2 475 64
2019-11-07 12:54:45 GMT 46.142204 -0.687675 32,750 2 474 64
2019-11-07 12:54:41 GMT 46.133331 -0.688186 32,725 2 473 576
2019-11-07 12:54:37 GMT 46.126053 -0.688637 32,675 2 472 1152
2019-11-07 12:54:32 GMT 46.114925 -0.689323 32,550 2 474 2048
2019-11-07 12:54:29 GMT 46.107147 -0.689794 32,450 2 474 1984
2019-11-07 12:54:26 GMT 46.102032 -0.690147 32,350 2 475 2112
2019-11-07 12:54:22 GMT 46.092224 -0.690799 32,250 3 475 2112
2019-11-07 12:54:19 GMT 46.085552 -0.691315 31,200 3 469 384
2019-11-07 12:54:12 GMT 46.070095 -0.692551 31,875 3 479 2240
2019-11-07 12:54:06 GMT 46.058552 -0.693512 31,250 3 482 1664
2019-11-07 12:54:03 GMT 46.049515 -0.694215 31,400 3 482 1344
2019-11-07 12:53:56 GMT 46.034134 -0.695421 31,350 3 482 896
2019-11-07 12:53:52 GMT 46.026352 -0.696024 31,300 3 480 320
2019-11-07 12:53:46 GMT 46.012619 -0.697096 31,275 3 477 320
2019-11-07 12:53:41 GMT 46.002548 -0.697906 31,250 3 476 384
2019-11-07 12:53:38 GMT 45.984283 -0.699441 31,225 3 473 384
2019-11-07 12:53:33 GMT 45.984283 -0.699441 31,200 3 471 384
2019-11-07 12:53:30 GMT 45.977409 -0.700035 31,200 3 471 384
2019-11-07 12:53:25 GMT 45.967636 -0.700790 31,175 3 468 384
2019-11-07 12:53:22 GMT 45.961349 -0.701340 31,150 3 466 320
2019-11-07 12:53:19 GMT 45.955032 -0.701919 31,125 3 464 256
2019-11-07 12:53:15 GMT 45.945145 -0.702723 31,125 3 461 448
2019-11-07 12:53:12 GMT 45.939285 -0.703262 31,100 3 461 512
2019-11-07 12:53:08 GMT 45.928623 -0.704155 31,025 3 459 960
2019-11-07 12:53:05 GMT 45.923550 -0.704567 30,975 3 459 1280
2019-11-07 12:53:01 GMT 45.913467 -0.705470 30,925 3 458 1792
2019-11-07 12:52:55 GMT 45.902252 -0.706408 30,650 3 460 2048
2019-11-07 12:52:48 GMT 45.885635 -0.707814 30,425 3 460 1408
2019-11-07 12:52:44 GMT 45.880142 -0.708216 30,375 3 460 1216
2019-11-07 12:52:39 GMT 45.857849 -0.709958 30,275 3 456 256
2019-11-07 12:52:34 GMT 45.857849 -0.709958 30,250 3 455 192
2019-11-07 12:52:27 GMT 45.843201 -0.711164 30,200 3 451 960
2019-11-07 12:52:24 GMT 45.836929 -0.711633 30,150 3 450 1280
2019-11-07 12:52:16 GMT 45.820389 -0.713013 29,950 3 449 1216
2019-11-07 12:52:13 GMT 45.815411 -0.713425 29,800 3 440 2432
2019-11-07 12:52:09 GMT 45.804890 -0.714317 29,925 3 445 256
2019-11-07 12:52:03 GMT 45.793808 -0.715210 29,875 3 442 448
2019-11-07 12:52:00 GMT 45.788406 -0.715719 29,850 3 440 2432
2019-11-07 12:51:56 GMT 45.778957 -0.716446 29,775 3 439 1600
2019-11-07 12:51:53 GMT 45.772861 -0.716995 29,675 3 439 2112
2019-11-07 12:51:48 GMT 45.762711 -0.717819 28,600 3 440 2432
2019-11-07 12:51:45 GMT 45.757030 -0.718300 29,375 3 440 2368
2019-11-07 12:51:42 GMT 45.751724 -0.718712 29,275 3 441 2304
2019-11-07 12:51:36 GMT 45.736130 -0.719939 29,050 3 442 1792
2019-11-07 12:51:32 GMT 45.730820 -0.720341 28,950 3 441 1152
2019-11-07 12:51:24 GMT 45.714855 -0.721596 28,875 3 436 448
2019-11-07 12:51:21 GMT 45.709488 -0.722083 28,850 3 435 512
2019-11-07 12:51:16 GMT 45.698750 -0.722969 28,525 3 432 1664
2019-11-07 12:51:09 GMT 45.684494 -0.724160 28,600 3 431 1984
2019-11-07 12:51:04 GMT 45.674103 -0.725031 28,400 3 431 2112
2019-11-07 12:51:01 GMT 45.668335 -0.725567 28,300 3 432 2176
2019-11-07 12:50:58 GMT 45.663277 -0.725990 28,200 3 432 1984
2019-11-07 12:50:55 GMT 45.656158 -0.726571 28,100 3 430 1920
2019-11-07 12:50:51 GMT 45.647865 -0.727295 27,950 3 432 1728
2019-11-07 12:50:48 GMT 45.643494 -0.727638 27,900 3 431 1792
2019-11-07 12:50:44 GMT 45.628052 -0.728916 27,650 3 431 1984
2019-11-07 12:50:41 GMT 45.628052 -0.728916 27,650 3 431 1984
2019-11-07 12:50:38 GMT 45.622650 -0.729385 27,550 3 431 1984
2019-11-07 12:50:35 GMT 45.615509 -0.729988 27,450 3 431 1920
2019-11-07 12:50:30 GMT 45.606853 -0.730728 27,300 3 430 1920
2019-11-07 12:50:26 GMT 45.597683 -0.731483 27,150 3 430 2048
2019-11-07 12:50:23 GMT 45.592937 -0.731895 27,075 3 429 1984
2019-11-07 12:50:20 GMT 45.586975 -0.732376 26,975 3 429 1536
2019-11-07 12:50:17 GMT 45.581810 -0.732788 26,900 3 428 1344
2019-11-07 12:50:13 GMT 45.566216 -0.734024 26,675 3 425 1216
2019-11-07 12:50:10 GMT 45.566216 -0.734024 26,750 3 425 1280
2019-11-07 12:50:07 GMT 45.562225 -0.734342 26,700 3 424 1600
2019-11-07 12:50:04 GMT 45.554581 -0.734945 26,575 3 423 1856
2019-11-07 12:49:57 GMT 45.542267 -0.735953 26,400 3 421 1600
2019-11-07 12:49:54 GMT 45.533627 -0.736620 26,275 3 420 1536
2019-11-07 12:49:49 GMT 45.525970 -0.737196 26,175 3 417 1408
2019-11-07 12:49:46 GMT 45.519974 -0.737653 26,125 3 416 1344
2019-11-07 12:49:43 GMT 45.514023 -0.738111 26,075 3 414 1216
2019-11-07 12:49:39 GMT 45.506744 -0.738700 25,975 3 412 1216
2019-11-07 12:49:36 GMT 45.501137 -0.739166 25,925 3 411 1280
2019-11-07 12:49:32 GMT 45.492382 -0.739835 25,800 3 409 1600
2019-11-07 12:49:28 GMT 45.485870 -0.740335 25,700 3 408 1792
2019-11-07 12:49:24 GMT 45.477859 -0.740974 25,575 3 406 1920
2019-11-07 12:49:21 GMT 45.466827 -0.741912 25,025 3 405 2112
2019-11-07 12:49:18 GMT 45.466827 -0.741912 25,375 3 405 2112
2019-11-07 12:49:14 GMT 45.459229 -0.742558 25,225 3 404 2048
2019-11-07 12:49:11 GMT 45.453510 -0.742984 25,200 3 404 2048
2019-11-07 12:49:08 GMT 45.448196 -0.743474 25,025 3 402 2432
2019-11-07 12:49:04 GMT 45.440964 -0.744062 24,850 3 402 2496
2019-11-07 12:49:01 GMT 45.433136 -0.744716 24,700 3 402 2880
2019-11-07 12:48:58 GMT 45.429539 -0.745061 24,600 3 403 3136
2019-11-07 12:48:55 GMT 45.425255 -0.745396 24,475 3 403 3136
2019-11-07 12:48:51 GMT 45.417061 -0.746065 24,250 3 404 3008
2019-11-07 12:48:45 GMT 45.405472 -0.747070 23,950 3 405 2560
2019-11-07 12:48:41 GMT 45.397705 -0.747724 23,850 3 404 2432
2019-11-07 12:48:37 GMT 45.390610 -0.748247 23,625 3 401 1856
2019-11-07 12:48:34 GMT 45.383148 -0.748901 23,525 3 402 1856
2019-11-07 12:48:31 GMT 45.378113 -0.749294 23,450 3 400 1920
2019-11-07 12:48:26 GMT 45.370464 -0.749884 23,300 3 399 2112
2019-11-07 12:48:23 GMT 45.365108 -0.750353 23,150 3 398 2176
2019-11-07 12:48:20 GMT 45.358566 -0.750863 23,150 3 398 2176
2019-11-07 12:48:15 GMT 45.350327 -0.751517 22,875 3 396 2560
2019-11-07 12:48:12 GMT 45.344101 -0.752040 22,725 3 395 2432
2019-11-07 12:48:09 GMT 45.338425 -0.752498 22,375 3 390 2176
2019-11-07 12:48:06 GMT 45.332932 -0.752956 22,475 3 395 2496
2019-11-07 12:48:03 GMT 45.327400 -0.753367 22,350 3 394 2432
2019-11-07 12:47:59 GMT 45.321209 -0.753903 22,250 3 393 2304
2019-11-07 12:47:53 GMT 45.309387 -0.754841 21,975 3 391 2176
2019-11-07 12:47:48 GMT 45.301025 -0.755506 21,800 3 389 2240
2019-11-07 12:47:43 GMT 45.291229 -0.756315 21,600 3 387 2432
2019-11-07 12:47:39 GMT 45.285831 -0.756784 21,475 3 387 2496
2019-11-07 12:47:33 GMT 45.273170 -0.757789 21,200 3 385 2368
2019-11-07 12:47:28 GMT 45.255573 -0.759195 20,875 3 383 2368
2019-11-07 12:47:23 GMT 45.255573 -0.759195 20,800 3 382 2368
2019-11-07 12:47:20 GMT 45.249344 -0.759692 20,650 3 380 2304
2019-11-07 12:47:13 GMT 45.231628 -0.761065 20,125 3 373 2432
2019-11-07 12:47:09 GMT 45.231628 -0.761065 20,175 3 374 2368
2019-11-07 12:47:02 GMT 45.219261 -0.762009 19,850 3 370 2240
2019-11-07 12:46:57 GMT 45.211075 -0.762700 19,850 3 370 2240
2019-11-07 12:46:52 GMT 45.202271 -0.763416 19,625 3 367 2304
2019-11-07 12:46:47 GMT 45.194229 -0.764073 19,425 3 366 2496
2019-11-07 12:46:44 GMT 45.188461 -0.764531 19,275 3 364 2560
2019-11-07 12:46:41 GMT 45.184113 -0.764923 19,175 3 364 2560
2019-11-07 12:46:35 GMT 45.174683 -0.765708 18,925 3 362 2624
2019-11-07 12:46:31 GMT 45.167542 -0.766296 18,750 3 360 2688
2019-11-07 12:46:28 GMT 45.161545 -0.766820 18,575 3 357 2944
2019-11-07 12:46:21 GMT 45.151108 -0.767670 18,300 3 357 2816
2019-11-07 12:46:16 GMT 45.141037 -0.768520 18,000 3 355 2880
2019-11-07 12:46:11 GMT 45.134537 -0.769043 17,800 3 355 2944
2019-11-07 12:46:07 GMT 45.127132 -0.769646 17,600 3 354 2752
2019-11-07 12:46:01 GMT 45.118195 -0.770351 17,325 3 352 2688
2019-11-07 12:45:56 GMT 45.101166 -0.771659 17,025 3 350 2688
2019-11-07 12:45:52 GMT 45.101166 -0.771659 16,875 3 348 2688
2019-11-07 12:45:45 GMT 45.085785 -0.772836 16,425 3 344 2752
2019-11-07 12:45:37 GMT 45.078461 -0.773424 16,225 3 342 2752
2019-11-07 12:45:34 GMT 45.073700 -0.773751 16,075 3 341 2816
2019-11-07 12:45:31 GMT 45.068985 -0.774144 15,950 3 340 2880
2019-11-07 12:45:27 GMT 45.062614 -0.774603 15,750 3 338 3136
2019-11-07 12:45:21 GMT 45.052929 -0.775340 15,425 2 337 3328
2019-11-07 12:45:17 GMT 45.046326 -0.775779 15,175 2 337 3328
2019-11-07 12:45:11 GMT 45.037846 -0.776412 14,875 2 336 3328
2019-11-07 12:45:06 GMT 45.030487 -0.776956 14,600 2 335 3328
2019-11-07 12:45:01 GMT 45.022205 -0.777551 14,300 2 334 3392
2019-11-07 12:44:56 GMT 45.014942 -0.778087 14,050 3 333 3328
2019-11-07 12:44:51 GMT 45.006748 -0.778690 13,825 3 332 3264
2019-11-07 12:44:46 GMT 44.999176 -0.779375 13,500 5 331 3008
2019-11-07 12:44:40 GMT 44.990753 -0.780683 13,225 11 333 2816
2019-11-07 12:44:35 GMT 44.983616 -0.782843 13,000 17 335 3008
2019-11-07 12:44:30 GMT 44.975372 -0.786728 12,800 21 336 3136
2019-11-07 12:44:26 GMT 44.968670 -0.790949 12,450 25 336 3264
2019-11-07 12:44:20 GMT 44.961182 -0.795986 12,225 25 336 3072
2019-11-07 12:44:15 GMT 44.953960 -0.800930 11,925 25 333 2944
2019-11-07 12:44:09 GMT 44.946793 -0.805820 11,700 25 330 3200
2019-11-07 12:44:04 GMT 44.940125 -0.810307 11,375 22 327 2944
2019-11-07 12:44:01 GMT 44.934402 -0.813642 11,200 15 319 2432
2019-11-07 12:43:54 GMT 44.925888 -0.817043 10,975 7 309 1920
2019-11-07 12:43:48 GMT 44.917461 -0.818749 10,800 3 300 1536
2019-11-07 12:43:45 GMT 44.911320 -0.819017 10,700 359 290 1664
2019-11-07 12:43:38 GMT 44.904102 -0.818749 10,550 359 282 2112
2019-11-07 12:43:34 GMT 44.898056 -0.818481 10,350 359 277 3072
2019-11-07 12:43:28 GMT 44.890228 -0.818285 10,000 0 276 3648
2019-11-07 12:43:23 GMT 44.884506 -0.818154 9,725 0 276 3520
2019-11-07 12:43:18 GMT 44.877289 -0.818146 9,375 0 274 3712
2019-11-07 12:43:13 GMT 44.871841 -0.818280 9,100 1 274 3904
2019-11-07 12:43:10 GMT 44.866116 -0.818414 8,825 1 274 3904
2019-11-07 12:43:07 GMT 44.863461 -0.818548 8,675 1 274 3904
2019-11-07 12:43:04 GMT 44.858963 -0.818743 8,450 2 273 3904
2019-11-07 12:42:59 GMT 44.853733 -0.819017 8,175 2 272 3712
2019-11-07 12:42:56 GMT 44.850540 -0.819201 8,025 2 272 3584
2019-11-07 12:42:53 GMT 44.845680 -0.819553 7,800 2 270 3392
2019-11-07 12:42:47 GMT 44.839279 -0.819986 7,575 2 267 3136
2019-11-07 12:42:43 GMT 44.833435 -0.820357 7,300 1 262 2816
2019-11-07 12:42:39 GMT 44.828690 -0.820558 7,125 1 258 2752
2019-11-07 12:42:36 GMT 44.824814 -0.820705 6,975 0 257 2752
2019-11-07 12:42:32 GMT 44.820786 -0.820705 6,825 359 251 2624
2019-11-07 12:42:27 GMT 44.814789 -0.820509 6,350 355 239 2432
2019-11-07 12:42:18 GMT 44.805180 -0.819151 6,225 350 230 2688
2019-11-07 12:42:14 GMT 44.801285 -0.818089 6,050 346 225 3264
2019-11-07 12:42:11 GMT 44.797668 -0.816716 5,825 344 223 3712
2019-11-07 12:42:07 GMT 44.793137 -0.814492 5,550 327 213 2880
2019-11-07 12:41:59 GMT 44.786636 -0.808149 5,175 307 201 2624
2019-11-07 12:41:55 GMT 44.784851 -0.805141 5,050 301 197 2432
2019-11-07 12:41:49 GMT 44.782196 -0.796509 4,775 289 189 2240
2019-11-07 12:41:46 GMT 44.781948 -0.793494 4,675 245 169 1728
2019-11-07 12:41:38 GMT 44.782608 -0.785457 4,475 247 171 1728
2019-11-07 12:41:34 GMT 44.783752 -0.781403 4,350 231 163 1728
2019-11-07 12:41:27 GMT 44.786884 -0.775206 4,150 228 159 1856
2019-11-07 12:41:24 GMT 44.788467 -0.772836 4,050 227 156 1984
2019-11-07 12:41:18 GMT 44.791626 -0.768193 3,850 226 147 1984
2019-11-07 12:41:13 GMT 44.794052 -0.764727 3,675 226 140 2112
2019-11-07 12:41:07 GMT 44.796753 -0.760870 3,425 226 137 3136
2019-11-07 12:41:03 GMT 44.798523 -0.758392 3,225 225 138 3200
We lost coverage of the aircraft here for a total of 67 minutes
2019-11-07 11:33:36 GMT 44.848938 -0.686244 650 226 129 -704
2019-11-07 11:33:27 GMT 44.852428 -0.681286 750 225 130 -768
2019-11-07 11:33:19 GMT 44.856354 -0.675790 875 226 132 -704
2019-11-07 11:33:08 GMT 44.860794 -0.669447 975 225 130 -576
2019-11-07 11:32:58 GMT 44.864952 -0.663467 1,075 226 129 -576
2019-11-07 11:32:47 GMT 44.869354 -0.657152 1,225 225 127 -768
2019-11-07 11:32:41 GMT 44.872604 -0.652509 1,325 226 125 -768
2019-11-07 11:32:38 GMT 44.873474 -0.651267 1,350 226 127 -832
2019-11-07 11:32:31 GMT 44.876312 -0.647212 1,425 226 129 -704
2019-11-07 11:32:28 GMT 44.877663 -0.645313 1,475 226 128 -768
2019-11-07 11:32:21 GMT 44.880314 -0.641494 1,550 226 127 -640
2019-11-07 11:32:17 GMT 44.881943 -0.639217 1,600 226 125 -768
2019-11-07 11:32:07 GMT 44.885948 -0.633456 1,700 226 125 -576
2019-11-07 11:32:01 GMT 44.888832 -0.629302 1,775 226 126 -768
2019-11-07 11:31:58 GMT 44.890045 -0.627594 1,825 225 130 -704
2019-11-07 11:31:51 GMT 44.892792 -0.623675 1,925 226 132 -1024
2019-11-07 11:31:47 GMT 44.894234 -0.621531 1,950 226 133 -640
2019-11-07 11:31:40 GMT 44.897186 -0.617262 2,050 226 135 -512
2019-11-07 11:31:37 GMT 44.898701 -0.615100 2,075 226 138 -704
2019-11-07 11:31:30 GMT 44.901718 -0.610788 2,175 226 144 -704
2019-11-07 11:31:27 GMT 44.903637 -0.608066 2,225 226 147 -960
2019-11-07 11:31:21 GMT 44.906570 -0.603846 2,325 226 149 -896
2019-11-07 11:31:17 GMT 44.908356 -0.601305 2,375 226 149 -832
2019-11-07 11:31:10 GMT 44.911598 -0.596678 2,450 226 149 -704
2019-11-07 11:31:06 GMT 44.913319 -0.594133 2,500 226 149 -896
2019-11-07 11:30:59 GMT 44.916595 -0.589469 2,600 226 148 -896
2019-11-07 11:30:56 GMT 44.918152 -0.587311 2,650 226 148 -768
2019-11-07 11:30:49 GMT 44.921371 -0.582610 2,725 227 149 -896
2019-11-07 11:30:46 GMT 44.923141 -0.580052 2,775 227 149 -896
2019-11-07 11:30:40 GMT 44.926449 -0.575241 2,875 227 150 -832
2019-11-07 11:30:37 GMT 44.927795 -0.573232 2,925 227 151 -832
2019-11-07 11:30:29 GMT 44.931290 -0.568019 3,025 227 152 -832
2019-11-07 11:30:26 GMT 44.932777 -0.565796 3,050 228 152 -832
2019-11-07 11:30:19 GMT 44.936035 -0.560772 3,150 229 151 -576
2019-11-07 11:30:16 GMT 44.937714 -0.558092 3,175 231 149 -320
2019-11-07 11:30:09 GMT 44.940647 -0.553068 3,175 235 146 128
2019-11-07 11:30:06 GMT 44.941948 -0.550455 3,175 238 145 64
2019-11-07 11:29:56 GMT 44.945068 -0.542416 3,175 255 153 128
2019-11-07 11:29:49 GMT 44.946095 -0.534914 3,175 278 160 0
2019-11-07 11:29:45 GMT 44.945812 -0.531899 3,175 288 163 -64
2019-11-07 11:29:38 GMT 44.943905 -0.524329 3,175 293 166 -64
2019-11-07 11:29:35 GMT 44.943161 -0.521717 3,175 294 167 -64
2019-11-07 11:29:28 GMT 44.940784 -0.514214 3,175 295 168 64
2019-11-07 11:29:25 GMT 44.939987 -0.511649 3,175 295 168 0
2019-11-07 11:29:18 GMT 44.937527 -0.504031 3,175 294 163 128
2019-11-07 11:29:15 GMT 44.936783 -0.501644 3,175 294 164 0
2019-11-07 11:29:08 GMT 44.934311 -0.493338 3,175 293 165 64
2019-11-07 11:28:57 GMT 44.931427 -0.483595 3,175 294 166 0
2019-11-07 11:28:53 GMT 44.929825 -0.478363 3,175 294 166 0
2019-11-07 11:28:45 GMT 44.927658 -0.471206 3,175 293 167 0
2019-11-07 11:28:34 GMT 44.924446 -0.460220 3,175 292 166 -64
2019-11-07 11:28:27 GMT 44.922352 -0.452851 3,175 292 166 0
2019-11-07 11:28:24 GMT 44.921654 -0.450439 3,175 293 167 -64
2019-11-07 11:28:16 GMT 44.915817 -0.432652 3,175 297 169 0
2019-11-07 11:28:06 GMT 44.915817 -0.432652 3,175 300 170 0
2019-11-07 11:28:03 GMT 44.914577 -0.429606 3,175 301 169 0
2019-11-07 11:27:55 GMT 44.911606 -0.422450 3,175 301 171 0
2019-11-07 11:27:45 GMT 44.907578 -0.412707 3,175 301 175 0
2019-11-07 11:27:34 GMT 44.903046 -0.401524 3,175 301 172 0
2019-11-07 11:27:25 GMT 44.894653 -0.383383 3,150 305 172 -64
2019-11-07 11:27:15 GMT 44.894653 -0.383383 3,150 308 171 0
2019-11-07 11:27:04 GMT 44.889633 -0.374451 3,175 310 169 -64
2019-11-07 11:26:55 GMT 44.884319 -0.365898 3,175 315 171 0
2019-11-07 11:26:44 GMT 44.878220 -0.357659 3,175 318 180 64
2019-11-07 11:26:34 GMT 44.871887 -0.349754 3,175 321 193 0
2019-11-07 11:26:23 GMT 44.864456 -0.341165 3,150 333 248 -768
2019-11-07 11:26:14 GMT 44.856899 -0.332604 3,150 323 219 128
2019-11-07 11:26:03 GMT 44.847885 -0.323639 3,175 330 235 -320
2019-11-07 11:25:52 GMT 44.837345 -0.315522 3,300 333 243 -896
2019-11-07 11:25:42 GMT 44.827881 -0.308467 3,425 333 248 -768
2019-11-07 11:25:33 GMT 44.817654 -0.300918 3,600 333 256 -1088
2019-11-07 11:25:23 GMT 44.806641 -0.292773 3,775 333 267 -1088
2019-11-07 11:25:11 GMT 44.794739 -0.284075 4,000 333 279 -1216
2019-11-07 11:25:02 GMT 44.783440 -0.275730 4,200 333 293 -1408
2019-11-07 11:24:51 GMT 44.770218 -0.266017 4,450 333 304 -1408
2019-11-07 11:24:42 GMT 44.757843 -0.256936 4,700 333 318 -1664
2019-11-07 11:24:31 GMT 44.744057 -0.246723 5,025 333 333 -2048
2019-11-07 11:24:20 GMT 44.729626 -0.236072 5,575 333 338 -4224
2019-11-07 11:24:10 GMT 44.716312 -0.226225 6,250 333 341 -4160
2019-11-07 11:24:01 GMT 44.701126 -0.215018 7,025 333 344 -4160
2019-11-07 11:23:54 GMT 44.692245 -0.208413 7,500 333 346 -4608
2019-11-07 11:23:50 GMT 44.687119 -0.204620 7,775 333 347 -4608
2019-11-07 11:23:44 GMT 44.679062 -0.198669 8,200 333 349 -4416
2019-11-07 11:23:40 GMT 44.672832 -0.194069 8,525 333 350 -4224
2019-11-07 11:23:30 GMT 44.658260 -0.183284 9,175 333 355 -4224
2019-11-07 11:23:20 GMT 44.643585 -0.172381 9,900 333 362 -3648
2019-11-07 11:23:13 GMT 44.634109 -0.165383 10,350 333 362 -5248
2019-11-07 11:23:10 GMT 44.628067 -0.160806 10,775 332 359 -6336
2019-11-07 11:22:59 GMT 44.613281 -0.149820 11,800 333 356 -5632
2019-11-07 11:22:53 GMT 44.603668 -0.142691 12,375 333 357 -4672
2019-11-07 11:22:49 GMT 44.598209 -0.138669 12,650 333 360 -4096
2019-11-07 11:22:43 GMT 44.588974 -0.131901 13,275 333 368 -3456
2019-11-07 11:22:40 GMT 44.585999 -0.129743 13,275 333 368 -3456
2019-11-07 11:22:37 GMT 44.580612 -0.125874 13,350 333 370 -3328
2019-11-07 11:22:33 GMT 44.575165 -0.121921 13,575 333 376 -3968
2019-11-07 11:22:29 GMT 44.567623 -0.116428 13,875 333 377 -3968
2019-11-07 11:22:21 GMT 44.555008 -0.107318 14,350 333 385 -2688
2019-11-07 11:22:18 GMT 44.551254 -0.104632 14,450 333 388 -2752
2019-11-07 11:22:12 GMT 44.542393 -0.098207 14,975 333 396 -3520
2019-11-07 11:22:08 GMT 44.535141 -0.092991 15,000 333 400 -3392
2019-11-07 11:22:00 GMT 44.521538 -0.083134 15,425 333 409 -3072
2019-11-07 11:21:54 GMT 44.505478 -0.071542 15,850 333 416 -3776
2019-11-07 11:21:51 GMT 44.505478 -0.071542 15,975 333 419 -3840
2019-11-07 11:21:48 GMT 44.500031 -0.067660 16,175 333 422 -3968
2019-11-07 11:21:37 GMT 44.482803 -0.055133 16,950 333 425 -5568
2019-11-07 11:21:32 GMT 44.473587 -0.048367 17,425 333 431 -5056
2019-11-07 11:21:27 GMT 44.464649 -0.041869 17,875 333 429 -4992
2019-11-07 11:21:22 GMT 44.453979 -0.034071 18,350 333 431 -5056
2019-11-07 11:21:17 GMT 44.446819 -0.028873 18,725 333 432 -5568
2019-11-07 11:21:10 GMT 44.434578 -0.019963 19,375 333 433 -5824
2019-11-07 11:21:06 GMT 44.428711 -0.015743 19,700 333 433 -5952
2019-11-07 11:21:02 GMT 44.420242 -0.009613 20,150 333 435 -5632
2019-11-07 11:20:59 GMT 44.414604 -0.005493 20,525 333 435 -5504
2019-11-07 11:20:56 GMT 44.410694 -0.002680 20,650 333 436 -5632
2019-11-07 11:20:49 GMT 44.397537 0.006866 21,650 333 437 -5824
2019-11-07 11:20:45 GMT 44.391266 0.011444 21,700 333 437 -5760
2019-11-07 11:20:39 GMT 44.378082 0.020926 22,325 333 442 -4928
2019-11-07 11:20:36 GMT 44.373367 0.024327 22,550 333 442 -4864
2019-11-07 11:20:28 GMT 44.359314 0.034463 23,200 333 449 -4672
2019-11-07 11:20:25 GMT 44.354645 0.037916 23,325 333 450 -4736
2019-11-07 11:20:16 GMT 44.336121 0.051381 24,175 333 454 -5376
2019-11-07 11:20:08 GMT 44.322338 0.061564 24,825 333 456 -5504
2019-11-07 11:20:05 GMT 44.316833 0.065591 25,000 333 456 -5888
2019-11-07 11:19:58 GMT 44.303951 0.075096 25,975 333 448 -8256
2019-11-07 11:19:55 GMT 44.297897 0.079584 26,450 333 444 -8192
2019-11-07 11:19:44 GMT 44.279343 0.093122 27,525 333 439 -6720
2019-11-07 11:19:35 GMT 44.260529 0.106855 28,825 333 436 -5888
2019-11-07 11:19:29 GMT 44.250275 0.114285 29,300 333 440 -3904
2019-11-07 11:19:24 GMT 44.242401 0.119934 29,450 333 441 -3712
2019-11-07 11:19:17 GMT 44.230408 0.128566 29,975 333 446 -3584
2019-11-07 11:19:14 GMT 44.224068 0.133176 30,075 333 447 -3968
2019-11-07 11:19:03 GMT 44.185661 0.161264 31,500 333 442 -6336
2019-11-07 11:18:54 GMT 44.176258 0.168065 32,525 333 456 -960
2019-11-07 11:18:48 GMT 44.176258 0.168065 32,675 333 441 -4928
2019-11-07 11:18:43 GMT 44.168381 0.173737 33,025 333 441 -4736
2019-11-07 11:18:33 GMT 44.149338 0.187470 33,775 333 444 -3584
2019-11-07 11:18:28 GMT 44.138271 0.195465 34,050 333 448 -2432
2019-11-07 11:18:23 GMT 44.130798 0.200884 34,200 333 449 -2176
2019-11-07 11:18:17 GMT 44.119465 0.209067 34,425 333 451 -1856
2019-11-07 11:18:13 GMT 44.112305 0.214170 34,525 333 452 -1600
2019-11-07 11:18:05 GMT 44.099030 0.223716 34,700 333 453 -1280
2019-11-07 11:18:02 GMT 44.092697 0.228228 34,750 333 453 -1024
2019-11-07 11:17:57 GMT 44.082642 0.235487 34,850 333 455 -1024
2019-11-07 11:17:50 GMT 44.070419 0.244318 34,925 333 456 -960
2019-11-07 11:17:46 GMT 44.063507 0.249300 36,850 334 440 -960
2019-11-07 11:17:40 GMT 44.052017 0.257476 35,100 334 458 -1024
2019-11-07 11:17:35 GMT 44.039906 0.265568 35,200 336 460 -1024
2019-11-07 11:17:30 GMT 44.032692 0.270015 35,275 338 463 -960
2019-11-07 11:17:21 GMT 44.012955 0.280871 35,425 339 462 -960
2019-11-07 11:17:09 GMT 43.990978 0.292576 35,600 340 461 -896
2019-11-07 11:17:00 GMT 43.972080 0.302516 35,750 340 460 -960
2019-11-07 11:16:55 GMT 43.962536 0.307552 35,825 340 459 -960
2019-11-07 11:16:48 GMT 43.948620 0.314745 35,950 340 459 -1024
2019-11-07 11:16:42 GMT 43.936157 0.321222 36,050 340 459 -1024
2019-11-07 11:16:39 GMT 43.930138 0.324358 36,100 340 459 -960
2019-11-07 11:16:33 GMT 43.919384 0.329917 36,200 340 459 -960
2019-11-07 11:16:29 GMT 43.910156 0.334700 36,275 340 459 -960
2019-11-07 11:16:19 GMT 43.890472 0.344856 36,425 340 457 -1024
2019-11-07 11:16:10 GMT 43.872131 0.354309 36,575 339 455 -960
2019-11-07 11:16:01 GMT 43.856140 0.363379 36,725 337 451 -1024
2019-11-07 11:15:58 GMT 43.849136 0.367850 36,750 335 447 -960
2019-11-07 11:15:55 GMT 43.843597 0.371619 36,825 334 443 -896
2019-11-07 11:15:47 GMT 43.828949 0.381775 36,900 334 442 -960
2019-11-07 11:15:44 GMT 43.824600 0.384777 37,200 334 440 -960
2019-11-07 11:15:38 GMT 43.813431 0.392565 37,125 334 440 -1024
2019-11-07 11:15:34 GMT 43.804230 0.398957 37,175 334 440 -1024
2019-11-07 11:15:26 GMT 43.791782 0.407606 37,250 334 439 -960
2019-11-07 11:15:23 GMT 43.785919 0.411668 37,325 334 439 -832
2019-11-07 11:15:17 GMT 43.775711 0.418694 37,400 334 439 -768
2019-11-07 11:15:14 GMT 43.768925 0.423431 37,450 334 439 -768
2019-11-07 11:15:06 GMT 43.745407 0.439645 37,650 334 439 -1088
2019-11-07 11:14:58 GMT 43.739178 0.444031 37,725 333 443 -896
2019-11-07 11:14:55 GMT 43.735474 0.446671 37,725 333 443 -896
2019-11-07 11:14:47 GMT 43.721069 0.457044 37,950 333 443 -896
2019-11-07 11:14:44 GMT 43.713913 0.462256 37,950 333 443 -768
2019-11-07 11:14:37 GMT 43.701893 0.471039 38,000 333 443 -128
2019-11-07 11:14:33 GMT 43.694733 0.476245 38,000 340 452 0
2019-11-07 11:14:26 GMT 43.682785 0.484995 38,000 333 443 0
2019-11-07 11:14:23 GMT 43.677155 0.489083 38,025 333 443 0
2019-11-07 11:14:16 GMT 43.665390 0.497578 38,000 333 444 0
2019-11-07 11:14:12 GMT 43.657246 0.503344 38,000 334 445 0
2019-11-07 11:14:07 GMT 43.646851 0.510481 38,000 335 446 64
2019-11-07 11:14:02 GMT 43.638519 0.516038 38,000 336 447 64
2019-11-07 11:13:56 GMT 43.627220 0.522832 38,000 338 450 0
2019-11-07 11:13:51 GMT 43.618652 0.527663 38,000 343 456 0
2019-11-07 11:13:45 GMT 43.606739 0.533622 38,000 342 455 64
2019-11-07 11:13:41 GMT 43.597046 0.538075 38,000 344 457 0
2019-11-07 11:13:35 GMT 43.586517 0.542418 38,000 344 458 0
2019-11-07 11:13:31 GMT 43.577133 0.546123 38,000 344 458 0
2019-11-07 11:13:25 GMT 43.565819 0.550559 38,000 344 458 -64
2019-11-07 11:13:20 GMT 43.556168 0.554426 38,000 344 459 -64
2019-11-07 11:13:15 GMT 43.545364 0.558706 38,000 344 457 0
2019-11-07 11:13:10 GMT 43.534973 0.562858 38,000 344 457 0
2019-11-07 11:13:05 GMT 43.524216 0.567137 38,000 344 456 0
2019-11-07 11:13:01 GMT 43.514191 0.571093 38,000 345 455 0
2019-11-07 11:12:55 GMT 43.503937 0.575122 38,000 345 454 0
2019-11-07 11:12:49 GMT 43.493042 0.579337 38,000 345 451 0
2019-11-07 11:12:44 GMT 43.482788 0.583361 38,000 345 452 0
2019-11-07 11:12:39 GMT 43.472717 0.587258 38,000 345 451 0
2019-11-07 11:12:35 GMT 43.462875 0.591090 38,000 345 451 0
2019-11-07 11:12:28 GMT 43.449646 0.596264 38,000 344 449 0
2019-11-07 11:12:24 GMT 43.442780 0.598951 38,000 344 448 0
2019-11-07 11:12:19 GMT 43.431519 0.603418 38,000 344 447 0
2019-11-07 11:12:14 GMT 43.421509 0.607387 38,000 344 445 0
2019-11-07 11:12:11 GMT 43.415451 0.609805 38,000 344 444 0
2019-11-07 11:12:08 GMT 43.410614 0.611703 38,000 344 439 0
2019-11-07 11:12:04 GMT 43.401855 0.615234 38,000 344 443 0
2019-11-07 11:11:59 GMT 43.393021 0.618811 38,000 344 442 0
2019-11-07 11:11:56 GMT 43.387115 0.621239 38,000 344 442 0
2019-11-07 11:11:51 GMT 43.375809 0.625774 38,000 344 439 0
2019-11-07 11:11:48 GMT 43.369274 0.628444 38,000 344 438 0
2019-11-07 11:11:44 GMT 43.361641 0.631518 38,000 344 437 -64
2019-11-07 11:11:39 GMT 43.353493 0.634787 38,025 344 432 0
2019-11-07 11:11:36 GMT 43.347977 0.637015 38,000 344 432 0
2019-11-07 11:11:33 GMT 43.342346 0.639315 38,000 344 434 0
2019-11-07 11:11:27 GMT 43.330498 0.644073 38,000 344 432 0
2019-11-07 11:11:23 GMT 43.322445 0.647343 38,025 344 432 0
2019-11-07 11:11:20 GMT 43.316757 0.649599 38,025 344 432 0
2019-11-07 11:11:16 GMT 43.310028 0.652281 38,025 344 432 0
2019-11-07 11:11:13 GMT 43.302933 0.655156 38,025 344 432 0
2019-11-07 11:11:06 GMT 43.289623 0.660488 38,025 344 433 0
2019-11-07 11:11:03 GMT 43.282974 0.663140 38,025 344 433 0
2019-11-07 11:10:59 GMT 43.276730 0.665588 38,025 344 433 0
2019-11-07 11:10:55 GMT 43.269608 0.668400 38,025 344 433 0
2019-11-07 11:10:52 GMT 43.263199 0.670996 38,025 344 433 0
2019-11-07 11:10:49 GMT 43.255508 0.674062 38,025 344 433 0
2019-11-07 11:10:45 GMT 43.249638 0.676379 38,025 344 434 0
2019-11-07 11:10:42 GMT 43.244049 0.678602 38,025 344 434 64
2019-11-07 11:10:39 GMT 43.238091 0.680956 38,000 344 434 64
2019-11-07 11:10:36 GMT 43.232273 0.683245 38,025 344 434 0
2019-11-07 11:10:32 GMT 43.224472 0.686390 38,000 344 434 0
2019-11-07 11:10:29 GMT 43.218887 0.688562 38,025 344 435 0
2019-11-07 11:10:25 GMT 43.211380 0.691564 38,025 344 435 0
2019-11-07 11:10:21 GMT 43.198425 0.696674 38,000 344 435 0
2019-11-07 11:10:18 GMT 43.198425 0.696674 38,000 344 435 0
2019-11-07 11:10:12 GMT 43.184921 0.702103 38,000 344 435 0
2019-11-07 11:10:08 GMT 43.179016 0.704433 38,000 344 435 0
2019-11-07 11:10:02 GMT 43.165421 0.709896 38,025 344 435 -64
2019-11-07 11:09:59 GMT 43.160019 0.712067 38,000 344 435 -64
2019-11-07 11:09:54 GMT 43.151039 0.715681 38,025 344 435 0
2019-11-07 11:09:51 GMT 43.145218 0.717970 38,025 344 435 64
2019-11-07 11:09:48 GMT 43.140377 0.719866 38,025 344 435 128
2019-11-07 11:09:41 GMT 43.125595 0.725800 38,000 344 436 64
2019-11-07 11:09:38 GMT 43.119896 0.728040 38,000 344 437 0
2019-11-07 11:09:31 GMT 43.105042 0.733912 38,000 344 437 0
2019-11-07 11:09:27 GMT 43.099739 0.736084 38,000 344 437 0
2019-11-07 11:09:23 GMT 43.084980 0.741839 38,000 344 437 0
2019-11-07 11:09:20 GMT 43.084980 0.741839 38,000 344 437 0
2019-11-07 11:09:16 GMT 43.071945 0.746940 37,975 345 436 64
2019-11-07 11:09:13 GMT 43.071945 0.746940 37,975 345 437 128
2019-11-07 11:09:10 GMT 43.065811 0.749306 37,975 345 437 128
2019-11-07 11:09:01 GMT 43.048809 0.755964 37,950 344 438 64
2019-11-07 11:08:58 GMT 43.040543 0.759206 37,950 344 438 0
2019-11-07 11:08:50 GMT 43.025066 0.765315 37,975 344 438 0
2019-11-07 11:08:47 GMT 43.021271 0.766807 37,975 344 438 64
2019-11-07 11:08:40 GMT 43.006851 0.772556 37,975 344 438 0
2019-11-07 11:08:37 GMT 43.001038 0.774856 37,975 344 439 0
2019-11-07 11:08:34 GMT 42.995274 0.777087 37,975 344 439 0
2019-11-07 11:08:29 GMT 42.987396 0.780221 37,975 344 439 0
2019-11-07 11:08:26 GMT 42.980576 0.782904 37,975 344 439 0
2019-11-07 11:08:20 GMT 42.967018 0.788269 37,975 344 439 64
2019-11-07 11:08:17 GMT 42.962315 0.790100 37,950 344 439 64
2019-11-07 11:08:10 GMT 42.948071 0.795724 37,950 344 440 0
2019-11-07 11:08:07 GMT 42.942673 0.797786 37,950 344 440 0
2019-11-07 11:08:00 GMT 42.927429 0.803854 37,950 344 441 -64
2019-11-07 11:07:57 GMT 42.921524 0.806154 37,950 344 441 -64
2019-11-07 11:07:48 GMT 42.906235 0.812158 37,950 344 442 0
2019-11-07 11:07:45 GMT 42.901154 0.814202 38,000 344 442 0
2019-11-07 11:07:39 GMT 42.888252 0.819266 37,975 344 442 -64
2019-11-07 11:07:36 GMT 42.881966 0.821817 37,975 344 443 -64
2019-11-07 11:07:29 GMT 42.866604 0.827898 37,975 344 443 -64
2019-11-07 11:07:25 GMT 42.861298 0.829991 37,975 344 444 -64
2019-11-07 11:07:18 GMT 42.846817 0.835727 38,000 344 445 -64
2019-11-07 11:07:15 GMT 42.842056 0.837580 38,000 344 445 -64
2019-11-07 11:07:07 GMT 42.825256 0.844159 38,000 345 446 -64
2019-11-07 11:06:59 GMT 42.810696 0.849806 38,000 345 446 0
2019-11-07 11:06:56 GMT 42.802231 0.853126 38,000 345 447 0
2019-11-07 11:06:50 GMT 42.791840 0.857189 38,000 345 448 0
2019-11-07 11:06:47 GMT 42.785568 0.859618 38,000 345 448 0
2019-11-07 11:06:44 GMT 42.780483 0.861533 38,000 345 448 0
2019-11-07 11:06:37 GMT 42.760139 0.869453 38,000 345 449 0
2019-11-07 11:06:28 GMT 42.746128 0.874818 38,000 345 450 0
2019-11-07 11:06:25 GMT 42.741257 0.876721 38,000 345 450 0
2019-11-07 11:06:17 GMT 42.725235 0.882964 38,000 345 451 0
2019-11-07 11:06:14 GMT 42.720104 0.884910 38,000 345 451 0
2019-11-07 11:06:08 GMT 42.707443 0.889829 38,000 344 452 128
2019-11-07 11:06:04 GMT 42.699993 0.892767 38,000 345 453 128
2019-11-07 11:05:56 GMT 42.683762 0.899069 38,000 344 455 0
2019-11-07 11:05:52 GMT 42.673416 0.903064 38,000 344 456 0
2019-11-07 11:05:47 GMT 42.665085 0.906310 38,000 345 457 -64
2019-11-07 11:05:44 GMT 42.659306 0.908608 38,000 345 457 0
2019-11-07 11:05:41 GMT 42.652603 0.911226 38,000 344 456 0
2019-11-07 11:05:36 GMT 42.642975 0.914924 38,000 344 456 0
2019-11-07 11:05:33 GMT 42.634773 0.918125 38,000 344 455 64
2019-11-07 11:05:26 GMT 42.622204 0.923043 38,000 344 454 0
2019-11-07 11:05:22 GMT 42.613403 0.926472 38,000 345 454 0
2019-11-07 11:05:15 GMT 42.601025 0.931283 38,000 345 453 0
2019-11-07 11:05:11 GMT 42.590317 0.935371 38,000 345 452 -64
2019-11-07 11:05:06 GMT 42.581177 0.938957 38,000 345 452 -64
2019-11-07 11:05:01 GMT 42.571232 0.942780 38,000 345 450 128
2019-11-07 11:04:57 GMT 42.563595 0.945718 38,000 345 450 64
2019-11-07 11:04:54 GMT 42.556503 0.948507 38,000 345 450 0
2019-11-07 11:04:50 GMT 42.550606 0.950765 38,000 345 450 0
2019-11-07 11:04:45 GMT 42.540180 0.954789 38,000 344 449 0
2019-11-07 11:04:42 GMT 42.534714 0.956934 38,000 344 448 0
2019-11-07 11:04:37 GMT 42.522354 0.961741 38,000 345 447 0
2019-11-07 11:04:31 GMT 42.511925 0.965775 38,000 344 445 0
2019-11-07 11:04:25 GMT 42.500237 0.970310 38,000 344 444 0
2019-11-07 11:04:22 GMT 42.492138 0.973440 38,000 345 444 0
2019-11-07 11:04:15 GMT 42.479462 0.978345 38,000 344 442 64
2019-11-07 11:04:11 GMT 42.462753 0.984837 37,950 345 438 128
2019-11-07 11:04:06 GMT 42.462753 0.984837 37,975 345 439 256
2019-11-07 11:04:02 GMT 42.453079 0.988514 37,950 345 439 192
2019-11-07 11:03:59 GMT 42.449249 0.990018 37,950 345 438 128
2019-11-07 11:03:54 GMT 42.439316 0.993826 37,950 345 438 0
2019-11-07 11:03:51 GMT 42.433502 0.996073 37,950 345 437 0
2019-11-07 11:03:46 GMT 42.422497 1.000267 37,950 345 436 0
2019-11-07 11:03:40 GMT 42.410751 1.004812 37,950 345 435 -64
2019-11-07 11:03:33 GMT 42.399536 1.009119 37,950 345 434 -64
2019-11-07 11:03:29 GMT 42.391724 1.012147 37,950 345 433 -64
2019-11-07 11:03:23 GMT 42.379017 1.017002 37,975 345 432 -64
2019-11-07 11:03:19 GMT 42.371895 1.019748 37,975 344 432 -64
2019-11-07 11:03:14 GMT 42.356873 1.025661 37,975 344 431 0
2019-11-07 11:03:11 GMT 42.356873 1.025661 37,975 344 430 0
2019-11-07 11:03:08 GMT 42.350739 1.028096 37,975 344 430 0
2019-11-07 11:03:04 GMT 42.344147 1.030671 37,975 344 429 0
2019-11-07 11:03:01 GMT 42.335026 1.034376 37,975 344 429 0
2019-11-07 11:02:58 GMT 42.332062 1.035524 37,975 344 429 0
2019-11-07 11:02:55 GMT 42.324280 1.038707 37,975 344 430 0
2019-11-07 11:02:51 GMT 42.318081 1.041146 37,975 346 431 -64
2019-11-07 11:02:48 GMT 42.313339 1.042827 38,000 348 433 -64
2019-11-07 11:02:44 GMT 42.304485 1.045681 38,000 349 434 -128
2019-11-07 11:02:41 GMT 42.298508 1.047322 38,000 351 436 -128
2019-11-07 11:02:37 GMT 42.291264 1.049003 38,000 352 437 -64
2019-11-07 11:02:34 GMT 42.284729 1.050256 38,000 354 439 -64
2019-11-07 11:02:28 GMT 42.272320 1.052069 38,000 355 441 0
2019-11-07 11:02:24 GMT 42.264450 1.052940 38,000 356 441 0
2019-11-07 11:02:20 GMT 42.257469 1.053729 38,000 356 442 0
2019-11-07 11:02:17 GMT 42.251450 1.054313 38,000 357 442 0
2019-11-07 11:02:11 GMT 42.235168 1.055582 38,000 358 445 -64
2019-11-07 11:02:07 GMT 42.231171 1.055811 38,000 359 445 -64
2019-11-07 11:02:03 GMT 42.222599 1.056093 38,025 0 446 -64
2019-11-07 11:02:00 GMT 42.215618 1.056284 38,025 0 447 -64
2019-11-07 11:01:56 GMT 42.208511 1.056310 38,025 0 447 -64
2019-11-07 11:01:53 GMT 42.201374 1.056284 38,025 1 448 0
2019-11-07 11:01:50 GMT 42.194000 1.056123 38,025 1 448 0
2019-11-07 11:01:46 GMT 42.187592 1.055874 38,025 2 449 64
2019-11-07 11:01:43 GMT 42.180237 1.055454 38,000 5 452 64
2019-11-07 11:01:40 GMT 42.173904 1.055062 38,025 3 450 64
2019-11-07 11:01:37 GMT 42.167679 1.054563 38,025 4 451 64
2019-11-07 11:01:31 GMT 42.154953 1.053252 38,000 5 453 64
2019-11-07 11:01:27 GMT 42.146851 1.052191 38,000 6 453 0
2019-11-07 11:01:20 GMT 42.132149 1.049961 38,000 7 455 0
2019-11-07 11:01:17 GMT 42.125793 1.048820 38,000 8 456 0
2019-11-07 11:01:10 GMT 42.109726 1.045574 38,000 9 457 64
2019-11-07 11:01:06 GMT 42.102859 1.044013 38,000 10 458 64
2019-11-07 11:01:03 GMT 42.095654 1.042232 38,000 11 458 64
2019-11-07 11:00:59 GMT 42.089081 1.040518 38,000 11 459 64
2019-11-07 11:00:56 GMT 42.081802 1.038458 38,000 12 460 64
2019-11-07 11:00:49 GMT 42.067394 1.034056 37,975 14 462 64
2019-11-07 11:00:46 GMT 42.061203 1.031948 37,975 14 462 128
2019-11-07 11:00:42 GMT 42.053238 1.029157 37,975 15 463 128
2019-11-07 11:00:39 GMT 42.046307 1.026583 37,950 16 464 64
2019-11-07 11:00:35 GMT 42.039089 1.023772 37,950 16 464 64
2019-11-07 11:00:32 GMT 42.032528 1.021154 37,950 16 464 64
2019-11-07 11:00:28 GMT 42.025223 1.018233 37,950 16 463 64
2019-11-07 11:00:25 GMT 42.019585 1.015980 37,950 16 463 0
2019-11-07 11:00:21 GMT 42.011078 1.012552 37,950 16 463 0
2019-11-07 11:00:18 GMT 42.004715 1.010056 37,950 16 463 0
2019-11-07 11:00:15 GMT 41.998123 1.007434 37,950 16 463 0
2019-11-07 11:00:10 GMT 41.985928 1.002566 37,950 16 461 -64
2019-11-07 11:00:07 GMT 41.975685 0.998542 37,950 16 461 0
2019-11-07 11:00:01 GMT 41.969650 0.996198 37,950 16 460 0
2019-11-07 10:59:58 GMT 41.963398 0.993688 37,950 16 460 0
2019-11-07 10:59:55 GMT 41.957199 0.991266 37,950 16 460 64
2019-11-07 10:59:50 GMT 41.947998 0.987646 37,950 16 459 0
2019-11-07 10:59:47 GMT 41.939026 0.984088 37,950 16 460 0
2019-11-07 10:59:44 GMT 41.934952 0.982465 37,950 16 460 0
2019-11-07 10:59:41 GMT 41.920616 0.976761 37,950 16 459 0
2019-11-07 10:59:34 GMT 41.914516 0.974334 37,950 16 459 -64
2019-11-07 10:59:31 GMT 41.900085 0.968521 37,950 16 459 -64
2019-11-07 10:59:27 GMT 41.894897 0.966485 37,950 16 459 0
2019-11-07 10:59:24 GMT 41.894897 0.966485 37,975 16 459 0
2019-11-07 10:59:21 GMT 41.879013 0.960118 37,975 16 459 -64
2019-11-07 10:59:14 GMT 41.872620 0.957535 37,975 16 459 -64
2019-11-07 10:59:09 GMT 41.864475 0.954278 37,975 16 459 -64
2019-11-07 10:59:06 GMT 41.856262 0.951004 37,975 16 459 -64
2019-11-07 10:59:03 GMT 41.851906 0.949232 37,975 16 459 -64
2019-11-07 10:59:00 GMT 41.844681 0.946385 37,975 16 458 -64
2019-11-07 10:58:56 GMT 41.836033 0.942972 37,975 16 458 0
2019-11-07 10:58:50 GMT 41.824253 0.938309 37,975 16 458 0
2019-11-07 10:58:46 GMT 41.816525 0.935307 37,975 16 458 0
2019-11-07 10:58:43 GMT 41.811539 0.933339 37,975 16 458 0
2019-11-07 10:58:37 GMT 41.798080 0.928033 37,975 16 458 -64
2019-11-07 10:58:33 GMT 41.789566 0.924662 38,000 16 458 -64
2019-11-07 10:58:30 GMT 41.782310 0.921830 38,000 16 459 -64
2019-11-07 10:58:27 GMT 41.777344 0.919855 38,000 16 459 -64
2019-11-07 10:58:23 GMT 41.768902 0.916464 38,000 16 459 -64
2019-11-07 10:58:19 GMT 41.761276 0.913426 38,000 16 459 0
2019-11-07 10:58:15 GMT 41.753723 0.910430 38,000 16 459 0
2019-11-07 10:58:07 GMT 41.734688 0.902795 38,000 16 460 0
2019-11-07 10:58:03 GMT 41.728683 0.900442 38,000 16 460 0
2019-11-07 10:57:59 GMT 41.720673 0.897174 38,000 16 460 0
2019-11-07 10:57:55 GMT 41.712387 0.893888 38,000 16 460 0
2019-11-07 10:57:52 GMT 41.706482 0.891516 38,000 16 460 0
2019-11-07 10:57:49 GMT 41.700165 0.889019 38,000 16 460 0
2019-11-07 10:57:45 GMT 41.691906 0.885741 38,000 16 460 64
2019-11-07 10:57:42 GMT 41.685806 0.883314 38,000 16 460 64
2019-11-07 10:57:36 GMT 41.665604 0.875265 37,975 16 460 64
2019-11-07 10:57:33 GMT 41.665604 0.875265 37,975 16 460 64
2019-11-07 10:57:29 GMT 41.651459 0.869605 37,975 16 460 -128
2019-11-07 10:57:25 GMT 41.646149 0.867545 37,975 16 460 -128
2019-11-07 10:57:22 GMT 41.646149 0.867545 37,975 16 461 0
2019-11-07 10:57:18 GMT 41.637772 0.864237 37,975 16 461 0
2019-11-07 10:57:15 GMT 41.631454 0.861678 37,975 16 461 0
2019-11-07 10:57:12 GMT 41.625320 0.859306 37,975 16 461 -64
2019-11-07 10:57:06 GMT 41.611221 0.853750 38,000 16 460 -128
2019-11-07 10:57:01 GMT 41.603073 0.850504 38,000 16 460 -128
2019-11-07 10:56:58 GMT 41.595932 0.847695 38,000 16 460 -128
2019-11-07 10:56:55 GMT 41.590439 0.845510 38,025 16 460 -64
2019-11-07 10:56:51 GMT 41.582291 0.842327 38,025 16 460 -64
2019-11-07 10:56:45 GMT 41.569244 0.837146 38,025 16 460 0
2019-11-07 10:56:41 GMT 41.559742 0.833428 38,025 16 460 0
2019-11-07 10:56:38 GMT 41.554138 0.831216 38,025 16 460 0
2019-11-07 10:56:34 GMT 41.548004 0.828781 38,025 16 460 0
2019-11-07 10:56:31 GMT 41.541401 0.826210 38,025 16 460 0
2019-11-07 10:56:27 GMT 41.533627 0.823144 38,025 16 460 0
2019-11-07 10:56:23 GMT 41.525852 0.820078 38,025 16 461 0
2019-11-07 10:56:20 GMT 41.519623 0.817670 38,025 16 461 64
2019-11-07 10:56:17 GMT 41.512482 0.814861 38,025 16 461 64
2019-11-07 10:56:14 GMT 41.504883 0.811865 38,025 16 461 0
2019-11-07 10:56:10 GMT 41.498337 0.809305 38,025 16 461 0
2019-11-07 10:56:07 GMT 41.491871 0.806729 38,025 16 462 0
2019-11-07 10:56:03 GMT 41.483490 0.803407 38,025 16 463 0
2019-11-07 10:56:00 GMT 41.479065 0.801690 38,025 16 462 0
2019-11-07 10:55:56 GMT 41.470642 0.798381 38,025 16 462 0
2019-11-07 10:55:51 GMT 41.458557 0.793637 38,000 16 463 0
2019-11-07 10:55:47 GMT 41.450253 0.790377 38,000 16 463 0
2019-11-07 10:55:44 GMT 41.445419 0.788456 38,000 16 463 0
2019-11-07 10:55:39 GMT 41.435867 0.784692 38,000 16 463 0
2019-11-07 10:55:36 GMT 41.429489 0.782201 38,000 16 463 64
2019-11-07 10:55:32 GMT 41.421482 0.779007 38,000 16 463 -64
2019-11-07 10:55:29 GMT 41.415436 0.776658 38,000 16 464 64
2019-11-07 10:55:26 GMT 41.408543 0.773961 38,000 16 464 64
2019-11-07 10:55:23 GMT 41.403076 0.771790 38,000 16 464 0
2019-11-07 10:55:19 GMT 41.394470 0.768419 38,000 16 464 0
2019-11-07 10:55:16 GMT 41.387054 0.765485 38,000 16 463 -64
2019-11-07 10:55:13 GMT 41.381287 0.763245 38,000 16 463 -64
2019-11-07 10:55:09 GMT 41.372742 0.759867 38,000 16 463 0
2019-11-07 10:55:06 GMT 41.366596 0.757495 38,000 16 463 0
2019-11-07 10:55:03 GMT 41.360550 0.755127 38,000 16 462 0
2019-11-07 10:54:59 GMT 41.352818 0.752127 38,000 16 462 0
2019-11-07 10:54:56 GMT 41.345230 0.749130 38,000 16 462 0
2019-11-07 10:54:53 GMT 41.340111 0.747133 38,000 16 463 0
2019-11-07 10:54:49 GMT 41.331802 0.743835 38,000 16 462 0
2019-11-07 10:54:43 GMT 41.320000 0.739205 38,000 16 462 0
2019-11-07 10:54:39 GMT 41.311386 0.735834 38,000 16 462 0
2019-11-07 10:54:33 GMT 41.298569 0.730835 38,000 16 462 -64
2019-11-07 10:54:29 GMT 41.290855 0.727782 38,025 16 461 -64
2019-11-07 10:54:25 GMT 41.282593 0.724548 38,025 16 461 -64
2019-11-07 10:54:22 GMT 41.277237 0.722473 38,025 16 461 -64
2019-11-07 10:54:18 GMT 41.268326 0.718980 38,025 16 462 0
2019-11-07 10:54:12 GMT 41.256222 0.714174 38,025 16 462 64
2019-11-07 10:54:03 GMT 41.234947 0.705809 38,000 16 461 0
2019-11-07 10:53:55 GMT 41.220108 0.700012 38,025 16 461 -64
2019-11-07 10:53:52 GMT 41.215675 0.698318 38,025 16 461 -64
2019-11-07 10:53:48 GMT 41.207294 0.695010 38,025 16 461 -64
2019-11-07 10:53:43 GMT 41.195240 0.690328 38,025 16 460 -64
2019-11-07 10:53:36 GMT 41.182949 0.685584 38,025 16 460 -64
2019-11-07 10:53:32 GMT 41.173645 0.681946 38,050 16 460 -64
2019-11-07 10:53:27 GMT 41.164444 0.678406 38,025 16 460 0
2019-11-07 10:53:24 GMT 41.157391 0.675659 38,050 16 460 0
2019-11-07 10:53:21 GMT 41.152317 0.673662 38,050 16 460 0
2019-11-07 10:53:15 GMT 41.137894 0.668091 38,050 16 460 -64
2019-11-07 10:53:11 GMT 41.129459 0.664798 38,050 16 460 -64
2019-11-07 10:53:04 GMT 41.115234 0.659302 38,050 16 460 0
2019-11-07 10:53:01 GMT 41.111073 0.657682 38,050 16 460 64
2019-11-07 10:52:56 GMT 41.101593 0.653992 38,050 16 460 64
2019-11-07 10:52:51 GMT 41.090149 0.649536 38,050 16 460 64
2019-11-07 10:52:45 GMT 41.079300 0.645386 38,050 16 460 64
2019-11-07 10:52:41 GMT 41.070202 0.641826 38,025 16 460 64
2019-11-07 10:52:36 GMT 41.060612 0.638143 38,025 16 461 64
2019-11-07 10:52:33 GMT 41.052704 0.635071 38,025 16 461 64
2019-11-07 10:52:30 GMT 41.048859 0.633606 38,025 16 461 64
2019-11-07 10:52:26 GMT 41.038078 0.629404 38,025 16 461 0
2019-11-07 10:52:20 GMT 41.027233 0.625222 38,025 16 461 0
2019-11-07 10:52:15 GMT 41.017830 0.621601 38,025 16 461 0
2019-11-07 10:52:10 GMT 41.007774 0.617669 38,025 16 460 0
2019-11-07 10:52:05 GMT 40.995949 0.613112 38,025 16 460 0
2019-11-07 10:52:00 GMT 40.986649 0.609497 38,025 16 460 0
2019-11-07 10:51:55 GMT 40.977036 0.605774 38,025 16 460 0
2019-11-07 10:51:50 GMT 40.966110 0.601564 38,025 16 459 0
2019-11-07 10:51:45 GMT 40.955612 0.597473 38,025 16 459 -64
2019-11-07 10:51:42 GMT 40.948185 0.594573 38,025 16 459 -64
2019-11-07 10:51:39 GMT 40.942978 0.592590 38,025 16 459 -64
2019-11-07 10:51:36 GMT 40.935104 0.589516 38,025 16 459 0
2019-11-07 10:51:30 GMT 40.924725 0.585521 38,025 16 458 0
2019-11-07 10:51:25 GMT 40.904194 0.577594 38,000 16 458 64
2019-11-07 10:51:20 GMT 40.904194 0.577594 38,000 16 458 64
2019-11-07 10:51:13 GMT 40.882324 0.569153 38,000 16 457 0
2019-11-07 10:51:09 GMT 40.882324 0.569153 38,000 16 457 64
2019-11-07 10:51:05 GMT 40.873810 0.565857 38,000 16 457 0
2019-11-07 10:50:59 GMT 40.863052 0.561707 38,000 16 457 64
2019-11-07 10:50:54 GMT 40.852383 0.557619 38,000 16 457 64
2019-11-07 10:50:49 GMT 40.842003 0.553624 37,975 16 457 64
2019-11-07 10:50:44 GMT 40.832085 0.549753 37,975 16 456 0
2019-11-07 10:50:41 GMT 40.823868 0.546570 37,975 16 456 0
2019-11-07 10:50:38 GMT 40.819839 0.545044 37,975 16 456 0
2019-11-07 10:50:28 GMT 40.799194 0.537048 38,000 16 454 0
2019-11-07 10:50:23 GMT 40.789261 0.533264 38,000 16 454 0
2019-11-07 10:50:18 GMT 40.778877 0.529279 38,000 16 454 0
2019-11-07 10:50:14 GMT 40.771008 0.526220 38,000 16 453 -64
2019-11-07 10:50:09 GMT 40.759232 0.521729 38,000 16 453 -64
2019-11-07 10:50:03 GMT 40.748978 0.517761 38,000 16 453 -64
2019-11-07 10:49:58 GMT 40.739548 0.514099 38,000 16 453 0
2019-11-07 10:49:53 GMT 40.729477 0.510254 38,000 16 452 64
2019-11-07 10:49:48 GMT 40.717937 0.505870 38,000 16 452 64
2019-11-07 10:49:44 GMT 40.708237 0.502136 38,000 16 453 0
2019-11-07 10:49:37 GMT 40.696976 0.497803 38,000 16 453 0
2019-11-07 10:49:33 GMT 40.689404 0.494884 38,000 16 453 0
2019-11-07 10:49:28 GMT 40.678482 0.490723 38,000 16 453 0
2019-11-07 10:49:20 GMT 40.663376 0.484924 38,000 16 453 0
2019-11-07 10:49:16 GMT 40.655319 0.481873 38,000 16 453 64
2019-11-07 10:49:11 GMT 40.645065 0.477905 38,000 16 453 64
2019-11-07 10:49:06 GMT 40.635307 0.474160 38,000 16 454 0
2019-11-07 10:49:02 GMT 40.627254 0.471039 38,000 16 454 0
2019-11-07 10:48:58 GMT 40.617050 0.467163 38,000 16 454 64
2019-11-07 10:48:52 GMT 40.605194 0.462585 38,000 16 454 64
2019-11-07 10:48:47 GMT 40.596497 0.459290 37,975 16 454 64
2019-11-07 10:48:42 GMT 40.585419 0.455078 37,975 16 454 64
2019-11-07 10:48:37 GMT 40.575443 0.451251 37,975 16 454 64
2019-11-07 10:48:31 GMT 40.563446 0.446655 37,950 16 454 64
2019-11-07 10:48:26 GMT 40.553970 0.443054 37,950 16 452 64
2019-11-07 10:48:20 GMT 40.542809 0.438829 37,950 16 452 0
2019-11-07 10:48:16 GMT 40.533966 0.435458 37,950 16 451 0
2019-11-07 10:48:11 GMT 40.524933 0.432025 37,950 16 451 -64
2019-11-07 10:48:06 GMT 40.514603 0.428162 37,975 16 448 0
2019-11-07 10:48:01 GMT 40.503204 0.423828 37,975 16 450 -64
2019-11-07 10:47:56 GMT 40.492767 0.419861 37,975 16 449 0
2019-11-07 10:47:46 GMT 40.473450 0.412537 37,975 16 448 0
2019-11-07 10:47:41 GMT 40.463158 0.408679 37,975 16 448 0
2019-11-07 10:47:34 GMT 40.450287 0.403809 37,975 16 449 0
2019-11-07 10:47:26 GMT 40.433643 0.397505 38,000 16 448 0
2019-11-07 10:47:15 GMT 40.411606 0.389099 38,000 16 449 0
2019-11-07 10:47:05 GMT 40.391792 0.381400 38,000 16 449 0
2019-11-07 10:46:55 GMT 40.370052 0.372911 38,000 16 449 0
2019-11-07 10:46:46 GMT 40.351665 0.366107 38,000 14 447 -64
2019-11-07 10:46:39 GMT 40.340866 0.362549 38,000 12 444 0
2019-11-07 10:46:34 GMT 40.330624 0.359428 38,000 12 444 0
2019-11-07 10:46:29 GMT 40.320618 0.356619 38,000 10 442 0
2019-11-07 10:46:23 GMT 40.308655 0.353638 38,000 9 440 64
2019-11-07 10:46:17 GMT 40.296547 0.350938 38,000 8 439 0
2019-11-07 10:46:13 GMT 40.288193 0.349365 38,000 7 437 64
2019-11-07 10:46:04 GMT 40.270477 0.346444 37,975 5 435 64
2019-11-07 10:45:57 GMT 40.256104 0.344543 37,975 5 436 64
2019-11-07 10:45:54 GMT 40.248413 0.343510 37,975 5 436 0
2019-11-07 10:45:47 GMT 40.236122 0.341887 38,000 5 437 -64
2019-11-07 10:45:42 GMT 40.226673 0.340639 38,000 5 437 -64
2019-11-07 10:45:38 GMT 40.216618 0.339328 38,000 5 437 -64
2019-11-07 10:45:32 GMT 40.206299 0.337952 38,000 5 437 -64
2019-11-07 10:45:26 GMT 40.193340 0.336269 38,000 5 436 0
2019-11-07 10:45:23 GMT 40.187210 0.335449 38,000 5 437 0
2019-11-07 10:45:13 GMT 40.167526 0.332825 38,000 5 437 0
2019-11-07 10:45:06 GMT 40.154331 0.331088 38,000 5 438 -64
2019-11-07 10:45:01 GMT 40.143539 0.329651 38,000 5 438 0
2019-11-07 10:44:57 GMT 40.136410 0.328716 38,000 5 438 0
2019-11-07 10:44:51 GMT 40.124119 0.327093 38,000 5 438 0
2019-11-07 10:44:43 GMT 40.106380 0.324783 38,000 5 437 0
2019-11-07 10:44:36 GMT 40.093826 0.323120 38,000 5 437 64
2019-11-07 10:44:33 GMT 40.086876 0.322224 38,000 5 436 64
2019-11-07 10:44:22 GMT 40.064579 0.319228 38,000 5 437 0
2019-11-07 10:44:16 GMT 40.052940 0.317730 38,000 5 437 -64
2019-11-07 10:44:10 GMT 40.040462 0.316107 38,000 5 437 0
2019-11-07 10:44:06 GMT 40.032223 0.315045 38,000 5 436 0
2019-11-07 10:44:00 GMT 40.018398 0.313360 38,000 5 435 -64
2019-11-07 10:43:52 GMT 40.004105 0.311584 38,000 5 432 0
2019-11-07 10:43:42 GMT 39.984375 0.309143 38,000 5 431 0
2019-11-07 10:43:31 GMT 39.963135 0.306519 38,000 5 429 0
2019-11-07 10:43:21 GMT 39.943916 0.304122 38,000 5 428 64
2019-11-07 10:43:14 GMT 39.928555 0.302124 38,000 5 426 128
2019-11-07 10:43:10 GMT 39.922081 0.301270 38,000 5 426 128
2019-11-07 10:43:02 GMT 39.904541 0.298900 38,000 6 427 64
2019-11-07 10:42:54 GMT 39.890659 0.296997 37,975 5 431 256
2019-11-07 10:42:51 GMT 39.884628 0.296153 37,975 5 431 192
2019-11-07 10:42:44 GMT 39.870758 0.294302 37,750 5 436 1280
2019-11-07 10:42:40 GMT 39.862915 0.293213 37,700 5 433 960
2019-11-07 10:42:33 GMT 39.845856 0.290959 37,750 5 436 1280
2019-11-07 10:42:30 GMT 39.842834 0.290541 37,700 5 435 1344
2019-11-07 10:42:19 GMT 39.819351 0.287436 37,475 5 438 960
2019-11-07 10:42:07 GMT 39.786255 0.283077 37,225 5 439 960
2019-11-07 10:42:01 GMT 39.781219 0.282420 37,175 5 439 896
2019-11-07 10:41:52 GMT 39.765759 0.280457 37,075 5 439 640
2019-11-07 10:41:49 GMT 39.760731 0.279846 37,075 5 439 576
2019-11-07 10:41:40 GMT 39.741550 0.277405 37,000 5 437 448
2019-11-07 10:41:32 GMT 39.725445 0.275330 36,925 5 436 768
2019-11-07 10:41:28 GMT 39.716721 0.274181 36,900 5 436 768
2019-11-07 10:41:22 GMT 39.696770 0.271545 36,675 5 436 1216
2019-11-07 10:41:18 GMT 39.696770 0.271545 36,700 5 436 1152
2019-11-07 10:41:10 GMT 39.680897 0.269470 36,525 5 437 1280
2019-11-07 10:41:03 GMT 39.666275 0.267613 36,400 5 438 896
2019-11-07 10:40:58 GMT 39.656799 0.266418 36,325 5 438 704
2019-11-07 10:40:53 GMT 39.646133 0.265045 36,200 5 436 512
2019-11-07 10:40:49 GMT 39.638718 0.264090 35,675 5 432 384
2019-11-07 10:40:42 GMT 39.623730 0.262146 36,175 5 436 512
2019-11-07 10:40:39 GMT 39.617615 0.261343 36,150 5 435 512
2019-11-07 10:40:32 GMT 39.603897 0.259583 36,075 5 435 832
2019-11-07 10:40:20 GMT 39.571682 0.255432 35,825 5 435 896
2019-11-07 10:40:12 GMT 39.564468 0.254517 35,775 5 435 768
2019-11-07 10:40:02 GMT 39.544601 0.251969 35,675 5 433 384
2019-11-07 10:39:56 GMT 39.533432 0.250536 35,650 5 432 384
2019-11-07 10:39:52 GMT 39.524387 0.249390 35,550 5 430 704
2019-11-07 10:39:48 GMT 39.517216 0.248474 35,575 5 431 576
2019-11-07 10:39:35 GMT 39.481888 0.243908 35,300 5 431 1216
2019-11-07 10:39:26 GMT 39.472855 0.242737 35,200 5 431 1344
2019-11-07 10:39:18 GMT 39.421509 0.236087 34,850 5 432 960
2019-11-07 10:39:05 GMT 39.421509 0.236087 34,525 5 432 1024
2019-11-07 10:38:57 GMT 39.416618 0.235474 34,725 5 432 1024
2019-11-07 10:38:47 GMT 39.395828 0.232743 34,525 5 432 1280
2019-11-07 10:38:37 GMT 39.376442 0.230164 34,300 5 432 1408
2019-11-07 10:38:34 GMT 39.370148 0.229399 34,225 5 433 1216
2019-11-07 10:38:29 GMT 39.360992 0.228205 34,125 5 432 1088
2019-11-07 10:38:26 GMT 39.354145 0.227356 34,075 5 432 1024
2019-11-07 10:38:23 GMT 39.348450 0.226593 34,025 5 432 960
2019-11-07 10:38:18 GMT 39.338642 0.225342 33,825 5 430 960
2019-11-07 10:38:08 GMT 39.319107 0.222891 33,800 5 430 960
2019-11-07 10:38:05 GMT 39.312294 0.222046 33,675 5 429 896
2019-11-07 10:37:58 GMT 39.298141 0.220264 33,650 5 429 832
2019-11-07 10:37:47 GMT 39.277660 0.217651 33,525 5 430 768
2019-11-07 10:37:34 GMT 39.240791 0.212952 33,275 5 430 832
2019-11-07 10:37:26 GMT 39.235481 0.212280 33,225 5 429 832
2019-11-07 10:37:22 GMT 39.227940 0.211304 33,175 5 429 832
2019-11-07 10:37:17 GMT 39.218170 0.210054 33,000 5 427 896
2019-11-07 10:37:05 GMT 39.191986 0.206650 32,875 5 427 896
2019-11-07 10:36:56 GMT 39.176880 0.204620 32,800 6 427 768
2019-11-07 10:36:46 GMT 39.157135 0.201965 32,675 6 427 896
2019-11-07 10:36:41 GMT 39.147873 0.200684 32,100 5 427 1088
2019-11-07 10:36:36 GMT 39.136467 0.199158 32,475 5 427 1152
2019-11-07 10:36:27 GMT 39.118698 0.196799 32,300 5 426 832
2019-11-07 10:36:16 GMT 39.098145 0.194112 32,175 5 423 832
2019-11-07 10:36:12 GMT 39.086517 0.192688 32,100 5 422 640
2019-11-07 10:36:06 GMT 39.077499 0.191604 32,075 4 417 448
2019-11-07 10:36:03 GMT 39.072464 0.191067 32,075 4 417 448
2019-11-07 10:35:56 GMT 39.035385 0.187245 31,975 6 418 1280
2019-11-07 10:35:44 GMT 39.035385 0.187245 31,750 6 418 1280
2019-11-07 10:35:40 GMT 39.028244 0.186170 31,675 8 421 1216
2019-11-07 10:35:35 GMT 39.019436 0.184265 31,575 12 428 1280
2019-11-07 10:35:30 GMT 39.009476 0.181274 31,475 16 434 1344
2019-11-07 10:35:23 GMT 38.994389 0.174927 31,300 22 445 1344
2019-11-07 10:35:20 GMT 38.989334 0.172258 31,100 23 445 1344
2019-11-07 10:35:14 GMT 38.977570 0.164855 31,100 31 457 1280
2019-11-07 10:35:09 GMT 38.970245 0.159421 31,000 31 457 1280
2019-11-07 10:35:02 GMT 38.954399 0.146484 30,825 32 459 1280
2019-11-07 10:34:59 GMT 38.951885 0.144470 30,800 32 457 1344
2019-11-07 10:34:49 GMT 38.934383 0.130188 30,575 32 457 1408
2019-11-07 10:34:44 GMT 38.923096 0.120909 30,425 32 456 1280
2019-11-07 10:34:39 GMT 38.916870 0.115774 30,350 32 454 1216
2019-11-07 10:34:33 GMT 38.904648 0.105803 30,125 32 450 1088
2019-11-07 10:34:29 GMT 38.897652 0.100098 30,150 32 451 1024
2019-11-07 10:34:23 GMT 38.887135 0.091492 30,050 32 449 1152
2019-11-07 10:34:19 GMT 38.881073 0.086517 29,975 32 449 1152
2019-11-07 10:34:13 GMT 38.869492 0.077143 29,850 32 446 1152
2019-11-07 10:34:09 GMT 38.862644 0.071533 29,775 32 445 1216
2019-11-07 10:34:03 GMT 38.845322 0.057499 29,525 32 441 1216
2019-11-07 10:33:59 GMT 38.845322 0.057499 29,575 32 443 1152
2019-11-07 10:33:52 GMT 38.834244 0.048603 29,450 31 440 1216
2019-11-07 10:33:48 GMT 38.826893 0.042786 29,350 31 439 1216
2019-11-07 10:33:43 GMT 38.809578 0.029114 29,175 31 437 1088
2019-11-07 10:33:38 GMT 38.809578 0.029114 29,175 31 437 1088
2019-11-07 10:33:32 GMT 38.799316 0.021137 29,050 31 435 1152
2019-11-07 10:33:28 GMT 38.792168 0.015564 28,975 31 434 1152
2019-11-07 10:33:16 GMT 38.762653 -0.007080 28,625 30 430 1408
2019-11-07 10:33:08 GMT 38.757614 -0.010927 28,550 30 429 1536
2019-11-07 10:32:57 GMT 38.739841 -0.024353 28,275 30 430 1600
2019-11-07 10:32:47 GMT 38.721268 -0.038273 28,000 30 428 1408
2019-11-07 10:32:40 GMT 38.708084 -0.048065 27,825 30 426 1216
2019-11-07 10:32:36 GMT 38.703506 -0.051528 27,775 30 426 1216
2019-11-07 10:32:27 GMT 38.687347 -0.063470 27,575 30 422 1472
2019-11-07 10:32:16 GMT 38.659790 -0.083651 27,050 29 420 2240
2019-11-07 10:32:06 GMT 38.651962 -0.089204 26,875 28 421 2240
2019-11-07 10:31:56 GMT 38.635895 -0.100370 26,400 27 420 2176
2019-11-07 10:31:46 GMT 38.618340 -0.112244 25,925 27 418 2176
2019-11-07 10:31:42 GMT 38.607239 -0.119715 25,925 27 418 2368
2019-11-07 10:31:36 GMT 38.600975 -0.123901 25,800 27 418 2304
2019-11-07 10:31:26 GMT 38.583389 -0.135598 25,400 27 418 2304
2019-11-07 10:31:20 GMT 38.572678 -0.142583 25,150 26 418 2368
2019-11-07 10:31:16 GMT 38.565628 -0.147181 24,725 24 417 2240
2019-11-07 10:31:11 GMT 38.555492 -0.153625 24,775 25 417 2304
2019-11-07 10:31:05 GMT 38.547626 -0.158325 24,600 23 415 2176
2019-11-07 10:30:58 GMT 38.534359 -0.165283 24,350 12 392 1920
2019-11-07 10:30:54 GMT 38.527328 -0.168274 24,200 16 408 2176
2019-11-07 10:30:44 GMT 38.498421 -0.177429 23,650 12 401 1984
2019-11-07 10:30:35 GMT 38.492603 -0.179077 23,550 12 400 2048
2019-11-07 10:30:24 GMT 38.473755 -0.184439 23,150 12 398 2240
2019-11-07 10:30:14 GMT 38.456085 -0.189395 22,600 12 393 1856
2019-11-07 10:30:05 GMT 38.439255 -0.194153 22,525 12 393 1920
2019-11-07 10:30:02 GMT 38.434086 -0.195557 22,425 12 391 1920
2019-11-07 10:29:54 GMT 38.419888 -0.200073 22,175 19 390 2048
2019-11-07 10:29:47 GMT 38.407379 -0.205935 21,900 25 392 2304
2019-11-07 10:29:44 GMT 38.390030 -0.218967 21,450 41 398 1664
2019-11-07 10:29:36 GMT 38.390030 -0.218967 21,500 38 397 1856
2019-11-07 10:29:33 GMT 38.386322 -0.222824 21,425 41 398 1664
2019-11-07 10:29:28 GMT 38.378036 -0.232743 21,275 47 398 1728
2019-11-07 10:29:23 GMT 38.373009 -0.239968 21,150 52 400 2112
2019-11-07 10:29:17 GMT 38.365978 -0.252088 20,900 57 401 2432
2019-11-07 10:29:13 GMT 38.362976 -0.258237 20,550 63 402 2048
2019-11-07 10:29:07 GMT 38.357136 -0.272150 20,525 63 402 1984
2019-11-07 10:29:03 GMT 38.354156 -0.279793 20,425 64 402 1920
2019-11-07 10:28:56 GMT 38.348755 -0.294302 20,200 65 399 2112
2019-11-07 10:28:53 GMT 38.345917 -0.302184 20,050 65 398 2368
2019-11-07 10:28:46 GMT 38.340775 -0.316558 19,750 65 396 2688
2019-11-07 10:28:43 GMT 38.338375 -0.323201 19,625 65 396 2688
2019-11-07 10:28:36 GMT 38.333221 -0.337537 19,325 65 394 2688
2019-11-07 10:28:32 GMT 38.330227 -0.345831 19,150 65 393 2688
2019-11-07 10:28:27 GMT 38.325619 -0.358727 18,875 65 392 2880
2019-11-07 10:28:22 GMT 38.322830 -0.366347 18,675 65 392 2944
2019-11-07 10:28:16 GMT 38.318077 -0.379685 18,375 65 390 2880
2019-11-07 10:28:12 GMT 38.314957 -0.388320 18,175 65 389 2752
2019-11-07 10:28:06 GMT 38.310379 -0.401001 17,925 65 387 2304
2019-11-07 10:28:02 GMT 38.307419 -0.409181 17,775 65 384 2176
2019-11-07 10:27:56 GMT 38.302994 -0.421481 17,550 65 381 2304
2019-11-07 10:27:52 GMT 38.300034 -0.429694 17,375 65 379 2432
2019-11-07 10:27:45 GMT 38.295265 -0.442976 17,100 65 377 2432
2019-11-07 10:27:41 GMT 38.292522 -0.450619 16,950 65 375 2496
2019-11-07 10:27:36 GMT 38.288132 -0.462770 16,700 65 374 2688
2019-11-07 10:27:31 GMT 38.285118 -0.471039 16,500 65 373 2816
2019-11-07 10:27:26 GMT 38.279343 -0.487080 16,200 65 372 3008
2019-11-07 10:27:23 GMT 38.277485 -0.492176 15,975 65 372 3072
2019-11-07 10:27:14 GMT 38.272110 -0.506890 15,600 64 370 2752
2019-11-07 10:27:11 GMT 38.270416 -0.511449 15,500 64 369 2624
2019-11-07 10:27:05 GMT 38.265884 -0.523545 15,250 64 366 2304
2019-11-07 10:27:01 GMT 38.262955 -0.531318 15,100 64 364 2240
2019-11-07 10:26:53 GMT 38.257374 -0.545734 14,800 63 359 2880
2019-11-07 10:26:50 GMT 38.255493 -0.550544 14,650 63 357 3200
2019-11-07 10:26:44 GMT 38.250858 -0.562273 14,300 62 358 3328
2019-11-07 10:26:40 GMT 38.248032 -0.569302 13,875 61 355 2560
2019-11-07 10:26:35 GMT 38.242943 -0.581619 13,825 61 355 2432
2019-11-07 10:26:30 GMT 38.239964 -0.588604 13,675 61 352 2368
2019-11-07 10:26:24 GMT 38.235077 -0.600157 13,475 61 349 2496
2019-11-07 10:26:20 GMT 38.232330 -0.606410 13,250 61 345 2688
2019-11-07 10:26:13 GMT 38.225857 -0.621384 12,875 61 340 2816
2019-11-07 10:26:10 GMT 38.224274 -0.625086 12,775 61 340 2944
2019-11-07 10:26:03 GMT 38.219650 -0.636097 12,450 62 338 3328
2019-11-07 10:26:00 GMT 38.217060 -0.642581 12,250 64 338 3072
2019-11-07 10:25:53 GMT 38.212738 -0.653920 11,925 67 335 2368
2019-11-07 10:25:49 GMT 38.210262 -0.661269 11,800 68 333 2240
2019-11-07 10:25:44 GMT 38.207050 -0.672256 11,600 73 328 2048
2019-11-07 10:25:37 GMT 38.203651 -0.694408 11,250 90 318 1280
2019-11-07 10:25:31 GMT 38.203651 -0.694408 11,300 92 316 1280
2019-11-07 10:25:23 GMT 38.205231 -0.710196 11,075 111 303 1344
2019-11-07 10:25:19 GMT 38.207016 -0.716507 11,025 115 298 1344
2019-11-07 10:25:13 GMT 38.211102 -0.726053 10,875 127 287 2112
2019-11-07 10:25:09 GMT 38.214405 -0.731546 10,700 132 283 3008
2019-11-07 10:25:05 GMT 38.218830 -0.737457 10,425 140 279 3456
2019-11-07 10:25:01 GMT 38.224461 -0.743010 10,100 147 277 3584
2019-11-07 10:24:54 GMT 38.230515 -0.747608 9,750 155 273 3520
2019-11-07 10:24:50 GMT 38.236588 -0.750986 9,475 161 270 3392
2019-11-07 10:24:41 GMT 38.248810 -0.753996 8,925 182 258 3008
2019-11-07 10:24:32 GMT 38.255184 -0.753579 8,575 195 249 2944
2019-11-07 10:24:28 GMT 38.260300 -0.752271 8,575 195 249 2944
2019-11-07 10:24:21 GMT 38.271698 -0.745142 7,725 219 236 4160
2019-11-07 10:24:12 GMT 38.275436 -0.740861 7,425 232 234 3776
2019-11-07 10:24:08 GMT 38.278370 -0.736323 7,175 240 233 3328
2019-11-07 10:24:00 GMT 38.282185 -0.726650 6,850 253 229 3200
2019-11-07 10:23:57 GMT 38.282867 -0.723345 6,625 261 227 3264
2019-11-07 10:23:51 GMT 38.283691 -0.715689 6,200 269 224 3392
2019-11-07 10:23:47 GMT 38.283829 -0.709904 6,050 269 223 3328
2019-11-07 10:23:42 GMT 38.284012 -0.702073 5,725 268 221 3200
2019-11-07 10:23:37 GMT 38.284142 -0.696915 5,525 268 219 3072
2019-11-07 10:23:29 GMT 38.284515 -0.686646 5,125 268 215 3008
2019-11-07 10:23:25 GMT 38.284698 -0.681630 4,925 268 213 3008
2019-11-07 10:23:20 GMT 38.284973 -0.674257 4,625 268 208 2880
2019-11-07 10:23:09 GMT 38.285339 -0.662452 4,050 269 209 3648
2019-11-07 10:22:58 GMT 38.285629 -0.648611 3,475 270 215 3328
2019-11-07 10:22:51 GMT 38.285770 -0.638700 3,025 270 214 3200
2019-11-07 10:22:48 GMT 38.285751 -0.635980 2,900 270 213 2880
2019-11-07 10:22:42 GMT 38.285889 -0.627214 2,625 269 205 2112
2019-11-07 10:22:38 GMT 38.285934 -0.623474 2,525 270 201 1792
2019-11-07 10:22:31 GMT 38.286003 -0.615473 2,350 270 191 1536
2019-11-07 10:22:28 GMT 38.286003 -0.612010 2,275 270 187 1600
2019-11-07 10:22:19 GMT 38.286049 -0.601442 1,975 271 174 1792
2019-11-07 10:22:11 GMT 38.285934 -0.593612 1,725 273 162 1664
2019-11-07 10:22:08 GMT 38.285866 -0.590814 1,725 273 162 1664
2019-11-07 10:22:00 GMT 38.285522 -0.583678 1,425 277 149 2752

Making use of Plane Finder data

You are free to use the raw flight data, aircraft information and images provided in this report for your own purposes provided the data is correctly attributed to Plane Finder. We ask that you please credit Plane Finder and link to planefinder.net in close proximity to the content.

Optionally one of the following logos (no smaller then 150x24px) can be used and must link to planefinder.net

Embedding the Plane Finder map

You are welcome to embed the Plane Finder playback map on your website to offer visitors a more interactive experience. We suggest using the following HTML code:

<iframe src="//planefinder.net/data/report/U27416-G-UZHE-7700-squawk-2019-11-07/map" width="800" height="600" seamless="seamless"></iframe>

Where our data comes from

Plane Finder has a global network of data feeds and antenna radars that receive data broadcast directly from aircraft. The primary technologies used are ADS-B and MLAT. We also show feeds from the FAA and a FLARM glider feed.

Click here to find out more about the Plane Finder network.

How we collect our data